<?xml version="1.0" encoding="UTF-8" standalone="no" ?>
<gpx xmlns="http://www.topografix.com/GPX/1/1" xmlns:xsi="http://www.w3.org/2001/XMLSchema-instance" xsi:schemaLocation="http://www.topografix.com/GPX/1/1 http://www.topografix.com/GPX/1/1/gpx.xsd" version="1.1" creator="VisuGPX - https://www.visugpx.com">
  <metadata>
    <name>Mai à vélo 2025 Lac du Crès le 11</name>
    <desc><![CDATA[Vélocité propose une balade-pique-nique au Lac du Crès
Dimanche 11 mai 2025

Rdv 10h45, depart 11h place de l’Europe

20 km pour l’aller et retour.

[url]https://www.velocite-montpellier.fr/event/balade-au-lac-du-cres-2/?instance_id=3006[/url]]]></desc>
  </metadata>
  <trk>
    <name><![CDATA[Mai à vélo 2025 Lac du Crès le 11]]></name>
    <trkseg>
      <trkpt lat="43.60769" lon="3.89564">
        <ele>62.841183</ele>
        <time>2025-04-20T12:16:40.543Z</time>
      </trkpt>
      <trkpt lat="43.60879" lon="3.89689">
        <ele>61.211175</ele>
        <time>2025-04-20T12:20:21.415Z</time>
      </trkpt>
      <trkpt lat="43.60887" lon="3.89697">
        <ele>60.90231</ele>
        <time>2025-04-20T12:20:25.424Z</time>
      </trkpt>
      <trkpt lat="43.60896" lon="3.89694">
        <ele>60.604754</ele>
        <time>2025-04-20T12:20:29.436Z</time>
      </trkpt>
      <trkpt lat="43.60982" lon="3.89672">
        <ele>57.849641</ele>
        <time>2025-04-20T12:21:04.091Z</time>
      </trkpt>
      <trkpt lat="43.60984" lon="3.89687">
        <ele>57.494306</ele>
        <time>2025-04-20T12:21:07.442Z</time>
      </trkpt>
      <trkpt lat="43.60987" lon="3.89701">
        <ele>57.211936</ele>
        <time>2025-04-20T12:21:11.428Z</time>
      </trkpt>
      <trkpt lat="43.60991" lon="3.89715">
        <ele>57.397808</ele>
        <time>2025-04-20T12:21:14.410Z</time>
      </trkpt>
      <trkpt lat="43.60991" lon="3.89728">
        <ele>57.558259</ele>
        <time>2025-04-20T12:21:17.434Z</time>
      </trkpt>
      <trkpt lat="43.60993" lon="3.89741">
        <ele>57.72435</ele>
        <time>2025-04-20T12:21:20.414Z</time>
      </trkpt>
      <trkpt lat="43.60994" lon="3.89757">
        <ele>57.915868</ele>
        <time>2025-04-20T12:21:24.438Z</time>
      </trkpt>
      <trkpt lat="43.60992" lon="3.89771">
        <ele>58.088872</ele>
        <time>2025-04-20T12:21:29.433Z</time>
      </trkpt>
      <trkpt lat="43.60981" lon="3.89772">
        <ele>58.279059</ele>
        <time>2025-04-20T12:21:34.409Z</time>
      </trkpt>
      <trkpt lat="43.60971" lon="3.89771">
        <ele>58.45463</ele>
        <time>2025-04-20T12:21:37.431Z</time>
      </trkpt>
      <trkpt lat="43.60968" lon="3.89786">
        <ele>58.643585</ele>
        <time>2025-04-20T12:21:41.448Z</time>
      </trkpt>
      <trkpt lat="43.60969" lon="3.898">
        <ele>58.816102</ele>
        <time>2025-04-20T12:21:45.452Z</time>
      </trkpt>
      <trkpt lat="43.61014" lon="3.89876">
        <ele>60.027958</ele>
        <time>2025-04-20T12:22:27.289Z</time>
      </trkpt>
      <trkpt lat="43.61023" lon="3.89885">
        <ele>60.229993</ele>
        <time>2025-04-20T12:22:28.451Z</time>
      </trkpt>
      <trkpt lat="43.61033" lon="3.89886">
        <ele>60.327077</ele>
        <time>2025-04-20T12:22:31.425Z</time>
      </trkpt>
      <trkpt lat="43.61043" lon="3.89878">
        <ele>60.408976</ele>
        <time>2025-04-20T12:22:34.442Z</time>
      </trkpt>
      <trkpt lat="43.61052" lon="3.89874">
        <ele>60.472524</ele>
        <time>2025-04-20T12:22:37.438Z</time>
      </trkpt>
      <trkpt lat="43.61063" lon="3.89873">
        <ele>60.54939</ele>
        <time>2025-04-20T12:22:41.446Z</time>
      </trkpt>
      <trkpt lat="43.61075" lon="3.89871">
        <ele>60.632312</ele>
        <time>2025-04-20T12:22:44.438Z</time>
      </trkpt>
      <trkpt lat="43.61087" lon="3.89868">
        <ele>60.717899</ele>
        <time>2025-04-20T12:22:47.447Z</time>
      </trkpt>
      <trkpt lat="43.61098" lon="3.89865">
        <ele>60.798846</ele>
        <time>2025-04-20T12:22:50.417Z</time>
      </trkpt>
      <trkpt lat="43.61162" lon="3.89854">
        <ele>61.240695</ele>
        <time>2025-04-20T12:23:08.957Z</time>
      </trkpt>
      <trkpt lat="43.61174" lon="3.89846">
        <ele>61.33819</ele>
        <time>2025-04-20T12:23:11.436Z</time>
      </trkpt>
      <trkpt lat="43.61185" lon="3.89841">
        <ele>61.417416</ele>
        <time>2025-04-20T12:23:13.445Z</time>
      </trkpt>
      <trkpt lat="43.61196" lon="3.89837">
        <ele>61.493135</ele>
        <time>2025-04-20T12:23:15.441Z</time>
      </trkpt>
      <trkpt lat="43.61208" lon="3.89835">
        <ele>61.530099</ele>
        <time>2025-04-20T12:23:18.458Z</time>
      </trkpt>
      <trkpt lat="43.61905" lon="3.89761">
        <ele>63.576618</ele>
        <time>2025-04-20T12:26:08.255Z</time>
      </trkpt>
      <trkpt lat="43.61917" lon="3.89757">
        <ele>63.721485</ele>
        <time>2025-04-20T12:26:09.912Z</time>
      </trkpt>
      <trkpt lat="43.61927" lon="3.89755">
        <ele>63.927926</ele>
        <time>2025-04-20T12:26:11.397Z</time>
      </trkpt>
      <trkpt lat="43.6194" lon="3.89749">
        <ele>64.235976</ele>
        <time>2025-04-20T12:26:13.422Z</time>
      </trkpt>
      <trkpt lat="43.6195" lon="3.89748">
        <ele>64.45942</ele>
        <time>2025-04-20T12:26:15.410Z</time>
      </trkpt>
      <trkpt lat="43.61963" lon="3.89749">
        <ele>64.742826</ele>
        <time>2025-04-20T12:26:18.434Z</time>
      </trkpt>
      <trkpt lat="43.61972" lon="3.89748">
        <ele>64.943926</ele>
        <time>2025-04-20T12:26:20.437Z</time>
      </trkpt>
      <trkpt lat="43.61984" lon="3.89748">
        <ele>65.218088</ele>
        <time>2025-04-20T12:26:23.434Z</time>
      </trkpt>
      <trkpt lat="43.61996" lon="3.89749">
        <ele>65.494553</ele>
        <time>2025-04-20T12:26:26.425Z</time>
      </trkpt>
      <trkpt lat="43.62238" lon="3.89778">
        <ele>67.991547</ele>
        <time>2025-04-20T12:27:27.746Z</time>
      </trkpt>
      <trkpt lat="43.62248" lon="3.89776">
        <ele>68.010687</ele>
        <time>2025-04-20T12:27:30.929Z</time>
      </trkpt>
      <trkpt lat="43.6226" lon="3.89779">
        <ele>68.031437</ele>
        <time>2025-04-20T12:27:34.415Z</time>
      </trkpt>
      <trkpt lat="43.6227" lon="3.89784">
        <ele>68.050954</ele>
        <time>2025-04-20T12:27:37.439Z</time>
      </trkpt>
      <trkpt lat="43.62279" lon="3.8979">
        <ele>68.13208</ele>
        <time>2025-04-20T12:27:40.451Z</time>
      </trkpt>
      <trkpt lat="43.62291" lon="3.89793">
        <ele>68.301668</ele>
        <time>2025-04-20T12:27:48.519Z</time>
      </trkpt>
      <trkpt lat="43.62297" lon="3.89807">
        <ele>68.469478</ele>
        <time>2025-04-20T12:27:51.525Z</time>
      </trkpt>
      <trkpt lat="43.62295" lon="3.8982">
        <ele>68.597367</ele>
        <time>2025-04-20T12:27:54.519Z</time>
      </trkpt>
      <trkpt lat="43.62314" lon="3.89837">
        <ele>68.914278</ele>
        <time>2025-04-20T12:27:56.520Z</time>
      </trkpt>
      <trkpt lat="43.62322" lon="3.89843">
        <ele>69.049358</ele>
        <time>2025-04-20T12:28:00.442Z</time>
      </trkpt>
      <trkpt lat="43.62357" lon="3.89834">
        <ele>69.550963</ele>
        <time>2025-04-20T12:28:20.044Z</time>
      </trkpt>
      <trkpt lat="43.62366" lon="3.89848">
        <ele>69.747575</ele>
        <time>2025-04-20T12:28:22.533Z</time>
      </trkpt>
      <trkpt lat="43.62378" lon="3.89848">
        <ele>69.920484</ele>
        <time>2025-04-20T12:28:23.537Z</time>
      </trkpt>
      <trkpt lat="43.62393" lon="3.89845">
        <ele>70.121631</ele>
        <time>2025-04-20T12:28:25.538Z</time>
      </trkpt>
      <trkpt lat="43.62389" lon="3.89892">
        <ele>70.640291</ele>
        <time>2025-04-20T12:28:26.539Z</time>
      </trkpt>
      <trkpt lat="43.62399" lon="3.89896">
        <ele>71.296909</ele>
        <time>2025-04-20T12:28:29.449Z</time>
      </trkpt>
      <trkpt lat="43.62442" lon="3.90102">
        <ele>81.035587</ele>
        <time>2025-04-20T12:30:06.305Z</time>
      </trkpt>
      <trkpt lat="43.62614" lon="3.90151">
        <ele>75.444608</ele>
        <time>2025-04-20T12:30:07.424Z</time>
      </trkpt>
      <trkpt lat="43.62637" lon="3.90152">
        <ele>74.662531</ele>
        <time>2025-04-20T12:30:08.385Z</time>
      </trkpt>
      <trkpt lat="43.62637" lon="3.90137">
        <ele>74.515718</ele>
        <time>2025-04-20T12:30:14.388Z</time>
      </trkpt>
      <trkpt lat="43.62646" lon="3.9014">
        <ele>74.384829</ele>
        <time>2025-04-20T12:30:21.439Z</time>
      </trkpt>
      <trkpt lat="43.62651" lon="3.90129">
        <ele>74.262641</ele>
        <time>2025-04-20T12:30:25.427Z</time>
      </trkpt>
      <trkpt lat="43.62661" lon="3.90123">
        <ele>74.117345</ele>
        <time>2025-04-20T12:30:30.412Z</time>
      </trkpt>
      <trkpt lat="43.6267" lon="3.90127">
        <ele>73.989936</ele>
        <time>2025-04-20T12:30:34.440Z</time>
      </trkpt>
      <trkpt lat="43.62754" lon="3.90354">
        <ele>72.055637</ele>
        <time>2025-04-20T12:32:10.461Z</time>
      </trkpt>
      <trkpt lat="43.62825" lon="3.90485">
        <ele>71.545593</ele>
        <time>2025-04-20T12:32:11.905Z</time>
      </trkpt>
      <trkpt lat="43.62831" lon="3.90497">
        <ele>71.477965</ele>
        <time>2025-04-20T12:32:12.928Z</time>
      </trkpt>
      <trkpt lat="43.62835" lon="3.90513">
        <ele>71.397001</ele>
        <time>2025-04-20T12:32:15.415Z</time>
      </trkpt>
      <trkpt lat="43.62838" lon="3.90527">
        <ele>71.324237</ele>
        <time>2025-04-20T12:32:17.419Z</time>
      </trkpt>
      <trkpt lat="43.62841" lon="3.90544">
        <ele>71.239439</ele>
        <time>2025-04-20T12:32:20.432Z</time>
      </trkpt>
      <trkpt lat="43.62844" lon="3.90559">
        <ele>71.167019</ele>
        <time>2025-04-20T12:32:23.433Z</time>
      </trkpt>
      <trkpt lat="43.62924" lon="3.90853">
        <ele>74.208693</ele>
        <time>2025-04-20T12:33:55.448Z</time>
      </trkpt>
      <trkpt lat="43.62924" lon="3.90867">
        <ele>74.586462</ele>
        <time>2025-04-20T12:34:06.450Z</time>
      </trkpt>
      <trkpt lat="43.63003" lon="3.91047">
        <ele>76.939121</ele>
        <time>2025-04-20T12:35:17.449Z</time>
      </trkpt>
      <trkpt lat="43.63012" lon="3.91054">
        <ele>76.923511</ele>
        <time>2025-04-20T12:35:20.430Z</time>
      </trkpt>
      <trkpt lat="43.63016" lon="3.9107">
        <ele>76.904458</ele>
        <time>2025-04-20T12:35:23.425Z</time>
      </trkpt>
      <trkpt lat="43.63023" lon="3.91081">
        <ele>76.887229</ele>
        <time>2025-04-20T12:35:26.422Z</time>
      </trkpt>
      <trkpt lat="43.63028" lon="3.91093">
        <ele>76.871535</ele>
        <time>2025-04-20T12:35:29.444Z</time>
      </trkpt>
      <trkpt lat="43.63033" lon="3.91107">
        <ele>76.854167</ele>
        <time>2025-04-20T12:35:32.442Z</time>
      </trkpt>
      <trkpt lat="43.63038" lon="3.9112">
        <ele>76.837849</ele>
        <time>2025-04-20T12:35:35.436Z</time>
      </trkpt>
      <trkpt lat="43.63042" lon="3.91133">
        <ele>76.822037</ele>
        <time>2025-04-20T12:35:38.441Z</time>
      </trkpt>
      <trkpt lat="43.63046" lon="3.91145">
        <ele>76.807185</ele>
        <time>2025-04-20T12:35:41.446Z</time>
      </trkpt>
      <trkpt lat="43.6314" lon="3.91461">
        <ele>78.508078</ele>
        <time>2025-04-20T12:36:56.438Z</time>
      </trkpt>
      <trkpt lat="43.63148" lon="3.91472">
        <ele>78.80864</ele>
        <time>2025-04-20T12:36:59.439Z</time>
      </trkpt>
      <trkpt lat="43.63153" lon="3.91485">
        <ele>79.073617</ele>
        <time>2025-04-20T12:37:02.439Z</time>
      </trkpt>
      <trkpt lat="43.63157" lon="3.91497">
        <ele>79.319147</ele>
        <time>2025-04-20T12:37:05.446Z</time>
      </trkpt>
      <trkpt lat="43.63242" lon="3.91762">
        <ele>83.011674</ele>
        <time>2025-04-20T12:38:13.422Z</time>
      </trkpt>
      <trkpt lat="43.63247" lon="3.91778">
        <ele>83.150983</ele>
        <time>2025-04-20T12:38:16.429Z</time>
      </trkpt>
      <trkpt lat="43.63251" lon="3.91792">
        <ele>83.270797</ele>
        <time>2025-04-20T12:38:19.436Z</time>
      </trkpt>
      <trkpt lat="43.63255" lon="3.91808">
        <ele>83.404328</ele>
        <time>2025-04-20T12:38:22.418Z</time>
      </trkpt>
      <trkpt lat="43.63259" lon="3.9182">
        <ele>83.514503</ele>
        <time>2025-04-20T12:38:25.440Z</time>
      </trkpt>
      <trkpt lat="43.63263" lon="3.91832">
        <ele>83.61743</ele>
        <time>2025-04-20T12:38:28.434Z</time>
      </trkpt>
      <trkpt lat="43.63262" lon="3.91845">
        <ele>83.593961</ele>
        <time>2025-04-20T12:38:31.433Z</time>
      </trkpt>
      <trkpt lat="43.63259" lon="3.91858">
        <ele>83.354786</ele>
        <time>2025-04-20T12:38:34.427Z</time>
      </trkpt>
      <trkpt lat="43.63257" lon="3.91872">
        <ele>83.109575</ele>
        <time>2025-04-20T12:38:37.442Z</time>
      </trkpt>
      <trkpt lat="43.63234" lon="3.92015">
        <ele>80.565175</ele>
        <time>2025-04-20T12:39:53.770Z</time>
      </trkpt>
      <trkpt lat="43.63193" lon="3.92197">
        <ele>79.511922</ele>
        <time>2025-04-20T12:39:54.909Z</time>
      </trkpt>
      <trkpt lat="43.6319" lon="3.9221">
        <ele>79.528044</ele>
        <time>2025-04-20T12:39:55.922Z</time>
      </trkpt>
      <trkpt lat="43.63185" lon="3.92221">
        <ele>79.544296</ele>
        <time>2025-04-20T12:39:59.414Z</time>
      </trkpt>
      <trkpt lat="43.63183" lon="3.92237">
        <ele>79.564365</ele>
        <time>2025-04-20T12:40:04.433Z</time>
      </trkpt>
      <trkpt lat="43.63178" lon="3.92249">
        <ele>79.58142</ele>
        <time>2025-04-20T12:40:07.422Z</time>
      </trkpt>
      <trkpt lat="43.63024" lon="3.92726">
        <ele>82.320488</ele>
        <time>2025-04-20T12:42:13.105Z</time>
      </trkpt>
      <trkpt lat="43.63014" lon="3.9273">
        <ele>82.629319</ele>
        <time>2025-04-20T12:42:22.406Z</time>
      </trkpt>
      <trkpt lat="43.63024" lon="3.92726">
        <ele>82.924114</ele>
        <time>2025-04-20T12:42:27.425Z</time>
      </trkpt>
      <trkpt lat="43.63032" lon="3.92733">
        <ele>83.194329</ele>
        <time>2025-04-20T12:42:32.558Z</time>
      </trkpt>
      <trkpt lat="43.63066" lon="3.92762">
        <ele>84.106924</ele>
        <time>2025-04-20T12:43:07.157Z</time>
      </trkpt>
      <trkpt lat="43.63072" lon="3.92778">
        <ele>84.396827</ele>
        <time>2025-04-20T12:43:08.639Z</time>
      </trkpt>
      <trkpt lat="43.63084" lon="3.92787">
        <ele>84.704683</ele>
        <time>2025-04-20T12:45:11.415Z</time>
      </trkpt>
      <trkpt lat="43.63092" lon="3.92792">
        <ele>84.903701</ele>
        <time>2025-04-20T12:45:14.894Z</time>
      </trkpt>
      <trkpt lat="43.63114" lon="3.92815">
        <ele>85.502211</ele>
        <time>2025-04-20T12:45:30.440Z</time>
      </trkpt>
      <trkpt lat="43.63122" lon="3.9282">
        <ele>85.706549</ele>
        <time>2025-04-20T12:45:31.403Z</time>
      </trkpt>
      <trkpt lat="43.63132" lon="3.92826">
        <ele>85.933663</ele>
        <time>2025-04-20T12:45:35.443Z</time>
      </trkpt>
      <trkpt lat="43.6314" lon="3.92835">
        <ele>86.169026</ele>
        <time>2025-04-20T12:45:40.436Z</time>
      </trkpt>
      <trkpt lat="43.63147" lon="3.92844">
        <ele>86.376836</ele>
        <time>2025-04-20T12:45:44.406Z</time>
      </trkpt>
      <trkpt lat="43.63182" lon="3.92984">
        <ele>87.696523</ele>
        <time>2025-04-20T12:46:24.951Z</time>
      </trkpt>
      <trkpt lat="43.63184" lon="3.92997">
        <ele>87.76053</ele>
        <time>2025-04-20T12:46:28.445Z</time>
      </trkpt>
      <trkpt lat="43.63189" lon="3.93011">
        <ele>87.838317</ele>
        <time>2025-04-20T12:46:32.440Z</time>
      </trkpt>
      <trkpt lat="43.63195" lon="3.93022">
        <ele>87.900744</ele>
        <time>2025-04-20T12:46:35.473Z</time>
      </trkpt>
      <trkpt lat="43.63329" lon="3.93205">
        <ele>90.480345</ele>
        <time>2025-04-20T12:47:33.431Z</time>
      </trkpt>
      <trkpt lat="43.63338" lon="3.93211">
        <ele>90.66643</ele>
        <time>2025-04-20T12:47:36.445Z</time>
      </trkpt>
      <trkpt lat="43.63345" lon="3.93221">
        <ele>90.859223</ele>
        <time>2025-04-20T12:47:39.448Z</time>
      </trkpt>
      <trkpt lat="43.63352" lon="3.93232">
        <ele>91.065214</ele>
        <time>2025-04-20T12:47:42.444Z</time>
      </trkpt>
      <trkpt lat="43.63433" lon="3.93355">
        <ele>90.76148</ele>
        <time>2025-04-20T12:48:21.497Z</time>
      </trkpt>
      <trkpt lat="43.63438" lon="3.93367">
        <ele>90.623267</ele>
        <time>2025-04-20T12:48:23.445Z</time>
      </trkpt>
      <trkpt lat="43.63444" lon="3.93388">
        <ele>90.391221</ele>
        <time>2025-04-20T12:48:26.433Z</time>
      </trkpt>
      <trkpt lat="43.63454" lon="3.93391">
        <ele>90.254273</ele>
        <time>2025-04-20T12:48:32.436Z</time>
      </trkpt>
      <trkpt lat="43.63462" lon="3.93384">
        <ele>90.121348</ele>
        <time>2025-04-20T12:48:35.442Z</time>
      </trkpt>
      <trkpt lat="43.63471" lon="3.93375">
        <ele>89.971774</ele>
        <time>2025-04-20T12:48:38.435Z</time>
      </trkpt>
      <trkpt lat="43.63481" lon="3.93364">
        <ele>89.782217</ele>
        <time>2025-04-20T12:48:41.423Z</time>
      </trkpt>
      <trkpt lat="43.6349" lon="3.93354">
        <ele>89.628543</ele>
        <time>2025-04-20T12:48:43.437Z</time>
      </trkpt>
      <trkpt lat="43.63499" lon="3.93344">
        <ele>89.462535</ele>
        <time>2025-04-20T12:48:45.441Z</time>
      </trkpt>
      <trkpt lat="43.63507" lon="3.93333">
        <ele>89.302798</ele>
        <time>2025-04-20T12:48:47.434Z</time>
      </trkpt>
      <trkpt lat="43.63516" lon="3.93317">
        <ele>89.133326</ele>
        <time>2025-04-20T12:48:50.922Z</time>
      </trkpt>
      <trkpt lat="43.63522" lon="3.93306">
        <ele>89.002478</ele>
        <time>2025-04-20T12:48:52.427Z</time>
      </trkpt>
      <trkpt lat="43.63533" lon="3.93293">
        <ele>88.829947</ele>
        <time>2025-04-20T12:48:54.440Z</time>
      </trkpt>
      <trkpt lat="43.63543" lon="3.93281">
        <ele>88.669905</ele>
        <time>2025-04-20T12:48:56.436Z</time>
      </trkpt>
      <trkpt lat="43.63552" lon="3.93268">
        <ele>88.511017</ele>
        <time>2025-04-20T12:48:58.439Z</time>
      </trkpt>
      <trkpt lat="43.63562" lon="3.93254">
        <ele>88.33536</ele>
        <time>2025-04-20T12:49:00.421Z</time>
      </trkpt>
      <trkpt lat="43.63573" lon="3.93238">
        <ele>88.138708</ele>
        <time>2025-04-20T12:49:02.429Z</time>
      </trkpt>
      <trkpt lat="43.63584" lon="3.93226">
        <ele>87.966523</ele>
        <time>2025-04-20T12:49:04.427Z</time>
      </trkpt>
      <trkpt lat="43.63594" lon="3.93213">
        <ele>87.801977</ele>
        <time>2025-04-20T12:49:06.441Z</time>
      </trkpt>
      <trkpt lat="43.63602" lon="3.93203">
        <ele>87.659659</ele>
        <time>2025-04-20T12:49:08.436Z</time>
      </trkpt>
      <trkpt lat="43.6361" lon="3.93195">
        <ele>87.542739</ele>
        <time>2025-04-20T12:49:10.432Z</time>
      </trkpt>
      <trkpt lat="43.6362" lon="3.93195">
        <ele>87.429948</ele>
        <time>2025-04-20T12:49:12.434Z</time>
      </trkpt>
      <trkpt lat="43.63628" lon="3.9319">
        <ele>87.314894</ele>
        <time>2025-04-20T12:49:14.439Z</time>
      </trkpt>
      <trkpt lat="43.63639" lon="3.93181">
        <ele>87.160116</ele>
        <time>2025-04-20T12:49:17.455Z</time>
      </trkpt>
      <trkpt lat="43.63771" lon="3.93058">
        <ele>87.648469</ele>
        <time>2025-04-20T12:50:00.360Z</time>
      </trkpt>
      <trkpt lat="43.63781" lon="3.93047">
        <ele>87.690682</ele>
        <time>2025-04-20T12:50:04.415Z</time>
      </trkpt>
      <trkpt lat="43.6379" lon="3.93045">
        <ele>87.720359</ele>
        <time>2025-04-20T12:50:07.419Z</time>
      </trkpt>
      <trkpt lat="43.63798" lon="3.93038">
        <ele>87.724978</ele>
        <time>2025-04-20T12:50:12.459Z</time>
      </trkpt>
      <trkpt lat="43.63806" lon="3.93028">
        <ele>87.72767</ele>
        <time>2025-04-20T12:50:18.415Z</time>
      </trkpt>
      <trkpt lat="43.63817" lon="3.93025">
        <ele>87.730367</ele>
        <time>2025-04-20T12:50:22.453Z</time>
      </trkpt>
      <trkpt lat="43.63827" lon="3.93022">
        <ele>87.732772</ele>
        <time>2025-04-20T12:50:25.427Z</time>
      </trkpt>
      <trkpt lat="43.63836" lon="3.93013">
        <ele>87.73543</ele>
        <time>2025-04-20T12:50:28.408Z</time>
      </trkpt>
      <trkpt lat="43.63957" lon="3.92929">
        <ele>87.808556</ele>
        <time>2025-04-20T12:51:14.923Z</time>
      </trkpt>
      <trkpt lat="43.63958" lon="3.92914">
        <ele>87.873189</ele>
        <time>2025-04-20T12:51:19.450Z</time>
      </trkpt>
      <trkpt lat="43.63962" lon="3.929">
        <ele>87.941802</ele>
        <time>2025-04-20T12:51:23.469Z</time>
      </trkpt>
      <trkpt lat="43.63967" lon="3.92887">
        <ele>88.004203</ele>
        <time>2025-04-20T12:51:26.400Z</time>
      </trkpt>
      <trkpt lat="43.63973" lon="3.92877">
        <ele>88.060508</ele>
        <time>2025-04-20T12:51:29.434Z</time>
      </trkpt>
      <trkpt lat="43.63981" lon="3.92869">
        <ele>88.120905</ele>
        <time>2025-04-20T12:51:33.436Z</time>
      </trkpt>
      <trkpt lat="43.63989" lon="3.92874">
        <ele>88.179215</ele>
        <time>2025-04-20T12:51:37.451Z</time>
      </trkpt>
      <trkpt lat="43.63992" lon="3.92889">
        <ele>88.247319</ele>
        <time>2025-04-20T12:51:41.442Z</time>
      </trkpt>
      <trkpt lat="43.63993" lon="3.92903">
        <ele>88.309219</ele>
        <time>2025-04-20T12:51:45.482Z</time>
      </trkpt>
      <trkpt lat="43.64087" lon="3.93033">
        <ele>91.148588</ele>
        <time>2025-04-20T12:52:57.360Z</time>
      </trkpt>
      <trkpt lat="43.64098" lon="3.93037">
        <ele>91.755193</ele>
        <time>2025-04-20T12:53:00.434Z</time>
      </trkpt>
      <trkpt lat="43.64107" lon="3.93041">
        <ele>92.266076</ele>
        <time>2025-04-20T12:53:04.431Z</time>
      </trkpt>
      <trkpt lat="43.64118" lon="3.93045">
        <ele>92.871466</ele>
        <time>2025-04-20T12:53:08.431Z</time>
      </trkpt>
      <trkpt lat="43.64128" lon="3.9305">
        <ele>93.421557</ele>
        <time>2025-04-20T12:53:12.432Z</time>
      </trkpt>
      <trkpt lat="43.64137" lon="3.93053">
        <ele>93.966102</ele>
        <time>2025-04-20T12:53:16.454Z</time>
      </trkpt>
      <trkpt lat="43.64187" lon="3.93077">
        <ele>96.792807</ele>
        <time>2025-04-20T12:53:33.937Z</time>
      </trkpt>
      <trkpt lat="43.64199" lon="3.93081">
        <ele>97.446645</ele>
        <time>2025-04-20T12:53:37.432Z</time>
      </trkpt>
      <trkpt lat="43.64211" lon="3.93084">
        <ele>98.101227</ele>
        <time>2025-04-20T12:53:40.438Z</time>
      </trkpt>
      <trkpt lat="43.64224" lon="3.93088">
        <ele>98.675178</ele>
        <time>2025-04-20T12:53:43.437Z</time>
      </trkpt>
      <trkpt lat="43.64528" lon="3.93035">
        <ele>101.67799</ele>
        <time>2025-04-20T12:54:37.471Z</time>
      </trkpt>
      <trkpt lat="43.64542" lon="3.93035">
        <ele>101.398111</ele>
        <time>2025-04-20T12:54:38.920Z</time>
      </trkpt>
      <trkpt lat="43.64551" lon="3.93033">
        <ele>101.202415</ele>
        <time>2025-04-20T12:54:40.423Z</time>
      </trkpt>
      <trkpt lat="43.64564" lon="3.93026">
        <ele>100.925185</ele>
        <time>2025-04-20T12:54:43.412Z</time>
      </trkpt>
      <trkpt lat="43.64575" lon="3.9302">
        <ele>100.711064</ele>
        <time>2025-04-20T12:54:45.396Z</time>
      </trkpt>
      <trkpt lat="43.64586" lon="3.93014">
        <ele>100.689816</ele>
        <time>2025-04-20T12:54:47.426Z</time>
      </trkpt>
      <trkpt lat="43.64595" lon="3.93008">
        <ele>100.672868</ele>
        <time>2025-04-20T12:54:49.435Z</time>
      </trkpt>
      <trkpt lat="43.64606" lon="3.93001">
        <ele>100.652869</ele>
        <time>2025-04-20T12:54:51.444Z</time>
      </trkpt>
      <trkpt lat="43.64613" lon="3.92993">
        <ele>100.636812</ele>
        <time>2025-04-20T12:54:58.997Z</time>
      </trkpt>
      <trkpt lat="43.64623" lon="3.92984">
        <ele>100.616485</ele>
        <time>2025-04-20T12:55:00.040Z</time>
      </trkpt>
      <trkpt lat="43.64639" lon="3.92977">
        <ele>100.587148</ele>
        <time>2025-04-20T12:55:01.529Z</time>
      </trkpt>
      <trkpt lat="43.64652" lon="3.92971">
        <ele>100.564599</ele>
        <time>2025-04-20T12:55:02.519Z</time>
      </trkpt>
      <trkpt lat="43.64663" lon="3.92961">
        <ele>100.542272</ele>
        <time>2025-04-20T12:55:04.423Z</time>
      </trkpt>
      <trkpt lat="43.64673" lon="3.92955">
        <ele>100.523374</ele>
        <time>2025-04-20T12:55:06.422Z</time>
      </trkpt>
      <trkpt lat="43.64682" lon="3.92948">
        <ele>100.505473</ele>
        <time>2025-04-20T12:55:08.420Z</time>
      </trkpt>
      <trkpt lat="43.6469" lon="3.92942">
        <ele>100.48972</ele>
        <time>2025-04-20T12:55:10.429Z</time>
      </trkpt>
      <trkpt lat="43.64702" lon="3.92934">
        <ele>100.467043</ele>
        <time>2025-04-20T12:55:13.438Z</time>
      </trkpt>
      <trkpt lat="43.64714" lon="3.92926">
        <ele>100.44415</ele>
        <time>2025-04-20T12:55:16.431Z</time>
      </trkpt>
      <trkpt lat="43.64725" lon="3.92916">
        <ele>100.422409</ele>
        <time>2025-04-20T12:55:19.428Z</time>
      </trkpt>
      <trkpt lat="43.64735" lon="3.92907">
        <ele>100.516403</ele>
        <time>2025-04-20T12:55:22.411Z</time>
      </trkpt>
      <trkpt lat="43.64745" lon="3.92899">
        <ele>101.031898</ele>
        <time>2025-04-20T12:55:25.425Z</time>
      </trkpt>
      <trkpt lat="43.64753" lon="3.9289">
        <ele>101.50262</ele>
        <time>2025-04-20T12:55:28.442Z</time>
      </trkpt>
      <trkpt lat="43.64761" lon="3.92881">
        <ele>101.964827</ele>
        <time>2025-04-20T12:55:31.440Z</time>
      </trkpt>
      <trkpt lat="43.64766" lon="3.9287">
        <ele>102.410221</ele>
        <time>2025-04-20T12:55:34.442Z</time>
      </trkpt>
      <trkpt lat="43.64771" lon="3.92859">
        <ele>102.835217</ele>
        <time>2025-04-20T12:55:37.442Z</time>
      </trkpt>
      <trkpt lat="43.64788" lon="3.92783">
        <ele>105.41188</ele>
        <time>2025-04-20T12:55:57.949Z</time>
      </trkpt>
      <trkpt lat="43.6479" lon="3.9277">
        <ele>105.859508</ele>
        <time>2025-04-20T12:56:01.450Z</time>
      </trkpt>
      <trkpt lat="43.64791" lon="3.92756">
        <ele>106.301758</ele>
        <time>2025-04-20T12:56:05.435Z</time>
      </trkpt>
      <trkpt lat="43.6479" lon="3.92744">
        <ele>106.714603</ele>
        <time>2025-04-20T12:56:09.429Z</time>
      </trkpt>
      <trkpt lat="43.64777" lon="3.92585">
        <ele>110.414558</ele>
        <time>2025-04-20T12:56:57.957Z</time>
      </trkpt>
      <trkpt lat="43.64775" lon="3.92571">
        <ele>110.677363</ele>
        <time>2025-04-20T12:57:01.435Z</time>
      </trkpt>
      <trkpt lat="43.64773" lon="3.92556">
        <ele>110.941565</ele>
        <time>2025-04-20T12:57:04.441Z</time>
      </trkpt>
      <trkpt lat="43.6477" lon="3.92543">
        <ele>111.189146</ele>
        <time>2025-04-20T12:57:07.446Z</time>
      </trkpt>
      <trkpt lat="43.64753" lon="3.92397">
        <ele>113.988869</ele>
        <time>2025-04-20T12:57:40.629Z</time>
      </trkpt>
      <trkpt lat="43.64742" lon="3.92389">
        <ele>114.349487</ele>
        <time>2025-04-20T12:57:41.939Z</time>
      </trkpt>
      <trkpt lat="43.64737" lon="3.92375">
        <ele>114.676371</ele>
        <time>2025-04-20T12:57:45.447Z</time>
      </trkpt>
      <trkpt lat="43.64735" lon="3.92362">
        <ele>114.959735</ele>
        <time>2025-04-20T12:57:48.441Z</time>
      </trkpt>
      <trkpt lat="43.64736" lon="3.92346">
        <ele>115.29058</ele>
        <time>2025-04-20T12:57:52.438Z</time>
      </trkpt>
      <trkpt lat="43.64785" lon="3.92221">
        <ele>118.208539</ele>
        <time>2025-04-20T12:58:24.527Z</time>
      </trkpt>
      <trkpt lat="43.64792" lon="3.92212">
        <ele>118.26326</ele>
        <time>2025-04-20T12:58:27.502Z</time>
      </trkpt>
      <trkpt lat="43.64799" lon="3.92202">
        <ele>118.319148</ele>
        <time>2025-04-20T12:58:29.525Z</time>
      </trkpt>
      <trkpt lat="43.64772" lon="3.92226">
        <ele>118.49689</ele>
        <time>2025-04-20T12:58:31.519Z</time>
      </trkpt>
      <trkpt lat="43.64776" lon="3.92214">
        <ele>118.54988</ele>
        <time>2025-04-20T12:58:35.410Z</time>
      </trkpt>
      <trkpt lat="43.64785" lon="3.92204">
        <ele>118.612932</ele>
        <time>2025-04-20T12:58:38.442Z</time>
      </trkpt>
      <trkpt lat="43.64796" lon="3.92194">
        <ele>118.683105</ele>
        <time>2025-04-20T12:58:41.431Z</time>
      </trkpt>
      <trkpt lat="43.64808" lon="3.92185">
        <ele>118.757534</ele>
        <time>2025-04-20T12:58:44.435Z</time>
      </trkpt>
      <trkpt lat="43.64817" lon="3.92179">
        <ele>118.81019</ele>
        <time>2025-04-20T12:58:46.433Z</time>
      </trkpt>
      <trkpt lat="43.64826" lon="3.92173">
        <ele>118.861947</ele>
        <time>2025-04-20T12:58:48.431Z</time>
      </trkpt>
      <trkpt lat="43.64835" lon="3.92168">
        <ele>118.917818</ele>
        <time>2025-04-20T12:58:50.436Z</time>
      </trkpt>
      <trkpt lat="43.64844" lon="3.92163">
        <ele>118.969291</ele>
        <time>2025-04-20T12:58:52.446Z</time>
      </trkpt>
      <trkpt lat="43.64853" lon="3.92158">
        <ele>119.021047</ele>
        <time>2025-04-20T12:58:54.448Z</time>
      </trkpt>
      <trkpt lat="43.64861" lon="3.92153">
        <ele>119.071521</ele>
        <time>2025-04-20T12:58:56.468Z</time>
      </trkpt>
      <trkpt lat="43.64902" lon="3.92148">
        <ele>119.532517</ele>
        <time>2025-04-20T12:59:14.063Z</time>
      </trkpt>
      <trkpt lat="43.64912" lon="3.92144">
        <ele>119.715095</ele>
        <time>2025-04-20T12:59:16.386Z</time>
      </trkpt>
      <trkpt lat="43.64925" lon="3.92133">
        <ele>119.96407</ele>
        <time>2025-04-20T12:59:17.939Z</time>
      </trkpt>
      <trkpt lat="43.64932" lon="3.92123">
        <ele>120.128787</ele>
        <time>2025-04-20T12:59:19.436Z</time>
      </trkpt>
      <trkpt lat="43.64941" lon="3.92111">
        <ele>120.339184</ele>
        <time>2025-04-20T12:59:21.447Z</time>
      </trkpt>
      <trkpt lat="43.64947" lon="3.92102">
        <ele>120.49089</ele>
        <time>2025-04-20T12:59:23.442Z</time>
      </trkpt>
      <trkpt lat="43.64957" lon="3.92096">
        <ele>120.663159</ele>
        <time>2025-04-20T12:59:26.453Z</time>
      </trkpt>
      <trkpt lat="43.65229" lon="3.92022">
        <ele>121.330259</ele>
        <time>2025-04-20T13:00:48.939Z</time>
      </trkpt>
      <trkpt lat="43.65227" lon="3.91992">
        <ele>120.404538</ele>
        <time>2025-04-20T13:00:49.913Z</time>
      </trkpt>
      <trkpt lat="43.65239" lon="3.91986">
        <ele>119.851637</ele>
        <time>2025-04-20T13:00:52.406Z</time>
      </trkpt>
      <trkpt lat="43.65252" lon="3.9198">
        <ele>119.257811</ele>
        <time>2025-04-20T13:00:55.412Z</time>
      </trkpt>
      <trkpt lat="43.65262" lon="3.91972">
        <ele>118.748121</ele>
        <time>2025-04-20T13:00:57.412Z</time>
      </trkpt>
      <trkpt lat="43.65275" lon="3.91966">
        <ele>118.154295</ele>
        <time>2025-04-20T13:00:59.409Z</time>
      </trkpt>
      <trkpt lat="43.65289" lon="3.9196">
        <ele>117.525586</ele>
        <time>2025-04-20T13:01:01.418Z</time>
      </trkpt>
      <trkpt lat="43.65301" lon="3.91951">
        <ele>116.929502</ele>
        <time>2025-04-20T13:01:03.420Z</time>
      </trkpt>
      <trkpt lat="43.65312" lon="3.91943">
        <ele>116.39095</ele>
        <time>2025-04-20T13:01:05.416Z</time>
      </trkpt>
      <trkpt lat="43.65322" lon="3.91936">
        <ele>115.913904</ele>
        <time>2025-04-20T13:01:07.422Z</time>
      </trkpt>
      <trkpt lat="43.65331" lon="3.91927">
        <ele>115.434493</ele>
        <time>2025-04-20T13:01:09.428Z</time>
      </trkpt>
      <trkpt lat="43.65342" lon="3.91923">
        <ele>114.924898</ele>
        <time>2025-04-20T13:01:12.414Z</time>
      </trkpt>
      <trkpt lat="43.65352" lon="3.91915">
        <ele>114.448624</ele>
        <time>2025-04-20T13:01:16.426Z</time>
      </trkpt>
      <trkpt lat="43.65361" lon="3.91923">
        <ele>113.951001</ele>
        <time>2025-04-20T13:01:21.434Z</time>
      </trkpt>
      <trkpt lat="43.6536" lon="3.91957">
        <ele>112.996247</ele>
        <time>2025-04-20T13:01:24.680Z</time>
      </trkpt>
      <trkpt lat="43.65369" lon="3.91947">
        <ele>112.518522</ele>
        <time>2025-04-20T13:01:25.933Z</time>
      </trkpt>
      <trkpt lat="43.65376" lon="3.91956">
        <ele>112.166571</ele>
        <time>2025-04-20T13:01:29.416Z</time>
      </trkpt>
      <trkpt lat="43.65379" lon="3.91968">
        <ele>111.809974</ele>
        <time>2025-04-20T13:01:31.435Z</time>
      </trkpt>
      <trkpt lat="43.65386" lon="3.91983">
        <ele>111.302264</ele>
        <time>2025-04-20T13:01:34.436Z</time>
      </trkpt>
      <trkpt lat="43.65391" lon="3.91995">
        <ele>110.943521</ele>
        <time>2025-04-20T13:01:36.441Z</time>
      </trkpt>
      <trkpt lat="43.65396" lon="3.92006">
        <ele>110.572156</ele>
        <time>2025-04-20T13:01:38.447Z</time>
      </trkpt>
      <trkpt lat="43.65408" lon="3.92013">
        <ele>110.088002</ele>
        <time>2025-04-20T13:01:44.202Z</time>
      </trkpt>
      <trkpt lat="43.65415" lon="3.92025">
        <ele>109.647398</ele>
        <time>2025-04-20T13:01:48.475Z</time>
      </trkpt>
      <trkpt lat="43.65418" lon="3.92038">
        <ele>109.260882</ele>
        <time>2025-04-20T13:01:52.467Z</time>
      </trkpt>
      <trkpt lat="43.65423" lon="3.92067">
        <ele>108.459298</ele>
        <time>2025-04-20T13:01:56.473Z</time>
      </trkpt>
      <trkpt lat="43.65425" lon="3.9208">
        <ele>108.092426</ele>
        <time>2025-04-20T13:02:08.525Z</time>
      </trkpt>
      <trkpt lat="43.65433" lon="3.92129">
        <ele>106.842195</ele>
        <time>2025-04-20T13:02:14.531Z</time>
      </trkpt>
      <trkpt lat="43.65439" lon="3.92144">
        <ele>106.605613</ele>
        <time>2025-04-20T13:02:17.443Z</time>
      </trkpt>
      <trkpt lat="43.65466" lon="3.92273">
        <ele>104.724306</ele>
        <time>2025-04-20T13:02:58.685Z</time>
      </trkpt>
      <trkpt lat="43.65479" lon="3.92284">
        <ele>104.427522</ele>
        <time>2025-04-20T13:02:59.675Z</time>
      </trkpt>
      <trkpt lat="43.65491" lon="3.92293">
        <ele>104.169388</ele>
        <time>2025-04-20T13:03:00.681Z</time>
      </trkpt>
      <trkpt lat="43.65496" lon="3.92309">
        <ele>103.92197</ele>
        <time>2025-04-20T13:03:02.672Z</time>
      </trkpt>
      <trkpt lat="43.65502" lon="3.9232">
        <ele>103.7277</ele>
        <time>2025-04-20T13:03:06.415Z</time>
      </trkpt>
      <trkpt lat="43.65505" lon="3.92335">
        <ele>103.521897</ele>
        <time>2025-04-20T13:03:11.429Z</time>
      </trkpt>
      <trkpt lat="43.65509" lon="3.92349">
        <ele>103.360467</ele>
        <time>2025-04-20T13:03:16.435Z</time>
      </trkpt>
      <trkpt lat="43.65512" lon="3.92361">
        <ele>103.218312</ele>
        <time>2025-04-20T13:03:20.466Z</time>
      </trkpt>
      <trkpt lat="43.65574" lon="3.92766">
        <ele>96.954854</ele>
        <time>2025-04-20T13:04:31.418Z</time>
      </trkpt>
      <trkpt lat="43.65575" lon="3.92779">
        <ele>96.675275</ele>
        <time>2025-04-20T13:04:33.432Z</time>
      </trkpt>
      <trkpt lat="43.65577" lon="3.92794">
        <ele>96.37114</ele>
        <time>2025-04-20T13:04:35.433Z</time>
      </trkpt>
      <trkpt lat="43.65579" lon="3.92808">
        <ele>96.076614</ele>
        <time>2025-04-20T13:04:37.433Z</time>
      </trkpt>
      <trkpt lat="43.65579" lon="3.92824">
        <ele>95.787346</ele>
        <time>2025-04-20T13:04:39.440Z</time>
      </trkpt>
      <trkpt lat="43.65581" lon="3.9284">
        <ele>95.652844</ele>
        <time>2025-04-20T13:04:41.433Z</time>
      </trkpt>
      <trkpt lat="43.65585" lon="3.92856">
        <ele>95.51114</ele>
        <time>2025-04-20T13:04:43.439Z</time>
      </trkpt>
      <trkpt lat="43.65591" lon="3.92871">
        <ele>95.368375</ele>
        <time>2025-04-20T13:04:45.438Z</time>
      </trkpt>
      <trkpt lat="43.65597" lon="3.92886">
        <ele>95.223428</ele>
        <time>2025-04-20T13:04:47.606Z</time>
      </trkpt>
      <trkpt lat="43.65661" lon="3.93129">
        <ele>92.161559</ele>
        <time>2025-04-20T13:05:35.627Z</time>
      </trkpt>
      <trkpt lat="43.65658" lon="3.93141">
        <ele>91.904491</ele>
        <time>2025-04-20T13:05:40.437Z</time>
      </trkpt>
      <trkpt lat="43.6567" lon="3.93128">
        <ele>91.480177</ele>
        <time>2025-04-20T13:07:01.026Z</time>
      </trkpt>
      <trkpt lat="43.65662" lon="3.93142">
        <ele>91.124117</ele>
        <time>2025-04-20T13:07:03.026Z</time>
      </trkpt>
      <trkpt lat="43.65647" lon="3.93144">
        <ele>90.724177</ele>
        <time>2025-04-20T13:07:39.431Z</time>
      </trkpt>
      <trkpt lat="43.65641" lon="3.93132">
        <ele>90.442366</ele>
        <time>2025-04-20T13:07:44.421Z</time>
      </trkpt>
      <trkpt lat="43.65628" lon="3.93063">
        <ele>89.060581</ele>
        <time>2025-04-20T13:08:53.388Z</time>
      </trkpt>
      <trkpt lat="43.65629" lon="3.93082">
        <ele>88.671248</ele>
        <time>2025-04-20T13:10:14.439Z</time>
      </trkpt>
      <trkpt lat="43.6563" lon="3.93096">
        <ele>88.37914</ele>
        <time>2025-04-20T13:10:19.440Z</time>
      </trkpt>
      <trkpt lat="43.65631" lon="3.93109">
        <ele>88.115856</ele>
        <time>2025-04-20T13:10:24.425Z</time>
      </trkpt>
      <trkpt lat="43.65629" lon="3.93123">
        <ele>87.815588</ele>
        <time>2025-04-20T13:10:30.402Z</time>
      </trkpt>
      <trkpt lat="43.65567" lon="3.93223">
        <ele>85.086856</ele>
        <time>2025-04-20T13:11:13.953Z</time>
      </trkpt>
      <trkpt lat="43.65557" lon="3.9323">
        <ele>84.77188</ele>
        <time>2025-04-20T13:11:19.428Z</time>
      </trkpt>
      <trkpt lat="43.65548" lon="3.93236">
        <ele>84.476909</ele>
        <time>2025-04-20T13:11:23.417Z</time>
      </trkpt>
      <trkpt lat="43.65539" lon="3.93244">
        <ele>84.17268</ele>
        <time>2025-04-20T13:11:27.427Z</time>
      </trkpt>
      <trkpt lat="43.65529" lon="3.93248">
        <ele>83.876938</ele>
        <time>2025-04-20T13:11:32.441Z</time>
      </trkpt>
      <trkpt lat="43.6552" lon="3.93249">
        <ele>83.977324</ele>
        <time>2025-04-20T13:11:37.442Z</time>
      </trkpt>
      <trkpt lat="43.65477" lon="3.93228">
        <ele>86.225073</ele>
        <time>2025-04-20T13:13:20.919Z</time>
      </trkpt>
      <trkpt lat="43.65466" lon="3.93236">
        <ele>86.886634</ele>
        <time>2025-04-20T13:15:23.940Z</time>
      </trkpt>
      <trkpt lat="43.65485" lon="3.93247">
        <ele>87.919426</ele>
        <time>2025-04-20T14:23:15.749Z</time>
      </trkpt>
      <trkpt lat="43.65475" lon="3.93249">
        <ele>88.402729</ele>
        <time>2025-04-20T14:23:28.442Z</time>
      </trkpt>
      <trkpt lat="43.65465" lon="3.93254">
        <ele>88.92505</ele>
        <time>2025-04-20T14:23:33.442Z</time>
      </trkpt>
      <trkpt lat="43.65455" lon="3.9326">
        <ele>89.470953</ele>
        <time>2025-04-20T14:23:38.439Z</time>
      </trkpt>
      <trkpt lat="43.65447" lon="3.93265">
        <ele>89.93295</ele>
        <time>2025-04-20T14:23:42.444Z</time>
      </trkpt>
      <trkpt lat="43.65426" lon="3.93285">
        <ele>91.189462</ele>
        <time>2025-04-20T14:23:58.887Z</time>
      </trkpt>
      <trkpt lat="43.65418" lon="3.93291">
        <ele>91.646085</ele>
        <time>2025-04-20T14:24:04.428Z</time>
      </trkpt>
      <trkpt lat="43.6541" lon="3.93299">
        <ele>92.144575</ele>
        <time>2025-04-20T14:24:10.429Z</time>
      </trkpt>
      <trkpt lat="43.65389" lon="3.93317">
        <ele>93.01731</ele>
        <time>2025-04-20T14:24:58.521Z</time>
      </trkpt>
      <trkpt lat="43.65381" lon="3.9333">
        <ele>93.312394</ele>
        <time>2025-04-20T14:24:59.526Z</time>
      </trkpt>
      <trkpt lat="43.65356" lon="3.93345">
        <ele>93.973819</ele>
        <time>2025-04-20T14:25:02.542Z</time>
      </trkpt>
      <trkpt lat="43.65347" lon="3.93346">
        <ele>94.194391</ele>
        <time>2025-04-20T14:25:44.469Z</time>
      </trkpt>
      <trkpt lat="43.65321" lon="3.93365">
        <ele>94.915794</ele>
        <time>2025-04-20T14:25:49.816Z</time>
      </trkpt>
      <trkpt lat="43.65332" lon="3.93365">
        <ele>95.203223</ele>
        <time>2025-04-20T14:25:50.945Z</time>
      </trkpt>
      <trkpt lat="43.65325" lon="3.93374">
        <ele>95.444686</ele>
        <time>2025-04-20T14:25:57.452Z</time>
      </trkpt>
      <trkpt lat="43.65314" lon="3.93368">
        <ele>95.716514</ele>
        <time>2025-04-20T14:26:02.450Z</time>
      </trkpt>
      <trkpt lat="43.65298" lon="3.93326">
        <ele>96.558278</ele>
        <time>2025-04-20T14:26:24.523Z</time>
      </trkpt>
      <trkpt lat="43.65304" lon="3.93338">
        <ele>96.811052</ele>
        <time>2025-04-20T14:26:28.547Z</time>
      </trkpt>
      <trkpt lat="43.65307" lon="3.93325">
        <ele>97.046377</ele>
        <time>2025-04-20T14:27:08.439Z</time>
      </trkpt>
      <trkpt lat="43.65305" lon="3.9331">
        <ele>97.817898</ele>
        <time>2025-04-20T14:27:34.455Z</time>
      </trkpt>
      <trkpt lat="43.65298" lon="3.93284">
        <ele>99.245164</ele>
        <time>2025-04-20T14:28:05.087Z</time>
      </trkpt>
      <trkpt lat="43.65308" lon="3.93243">
        <ele>101.532959</ele>
        <time>2025-04-20T14:28:08.578Z</time>
      </trkpt>
      <trkpt lat="43.65316" lon="3.9323">
        <ele>102.492211</ele>
        <time>2025-04-20T14:28:09.578Z</time>
      </trkpt>
      <trkpt lat="43.65313" lon="3.93218">
        <ele>103.154935</ele>
        <time>2025-04-20T14:28:14.567Z</time>
      </trkpt>
      <trkpt lat="43.65299" lon="3.93204">
        <ele>104.424538</ele>
        <time>2025-04-20T14:28:16.545Z</time>
      </trkpt>
      <trkpt lat="43.65287" lon="3.93206">
        <ele>105.291321</ele>
        <time>2025-04-20T14:28:35.569Z</time>
      </trkpt>
      <trkpt lat="43.65284" lon="3.93193">
        <ele>105.979277</ele>
        <time>2025-04-20T14:28:44.536Z</time>
      </trkpt>
      <trkpt lat="43.65277" lon="3.93186">
        <ele>106.672565</ele>
        <time>2025-04-20T14:28:51.454Z</time>
      </trkpt>
      <trkpt lat="43.65269" lon="3.93176">
        <ele>107.432921</ele>
        <time>2025-04-20T14:29:03.445Z</time>
      </trkpt>
      <trkpt lat="43.65267" lon="3.93163">
        <ele>108.117557</ele>
        <time>2025-04-20T14:29:16.488Z</time>
      </trkpt>
      <trkpt lat="43.65264" lon="3.93151">
        <ele>108.780976</ele>
        <time>2025-04-20T14:29:30.440Z</time>
      </trkpt>
      <trkpt lat="43.65255" lon="3.93124">
        <ele>110.237656</ele>
        <time>2025-04-20T14:30:06.450Z</time>
      </trkpt>
      <trkpt lat="43.65262" lon="3.93116">
        <ele>110.424021</ele>
        <time>2025-04-20T14:30:18.435Z</time>
      </trkpt>
      <trkpt lat="43.65323" lon="3.92926">
        <ele>113.409399</ele>
        <time>2025-04-20T14:34:04.443Z</time>
      </trkpt>
      <trkpt lat="43.65317" lon="3.9287">
        <ele>113.87046</ele>
        <time>2025-04-20T14:36:40.431Z</time>
      </trkpt>
      <trkpt lat="43.6532" lon="3.92857">
        <ele>113.917595</ele>
        <time>2025-04-20T14:36:44.449Z</time>
      </trkpt>
      <trkpt lat="43.65318" lon="3.92842">
        <ele>113.966625</ele>
        <time>2025-04-20T14:36:48.454Z</time>
      </trkpt>
      <trkpt lat="43.65321" lon="3.92828">
        <ele>114.016014</ele>
        <time>2025-04-20T14:36:53.455Z</time>
      </trkpt>
      <trkpt lat="43.65323" lon="3.92814">
        <ele>114.066563</ele>
        <time>2025-04-20T14:37:01.457Z</time>
      </trkpt>
      <trkpt lat="43.65328" lon="3.92802">
        <ele>114.110651</ele>
        <time>2025-04-20T14:37:05.435Z</time>
      </trkpt>
      <trkpt lat="43.65333" lon="3.9279">
        <ele>114.159184</ele>
        <time>2025-04-20T14:37:09.461Z</time>
      </trkpt>
      <trkpt lat="43.65337" lon="3.92778">
        <ele>114.203989</ele>
        <time>2025-04-20T14:37:12.398Z</time>
      </trkpt>
      <trkpt lat="43.65342" lon="3.92767">
        <ele>114.248212</ele>
        <time>2025-04-20T14:37:15.450Z</time>
      </trkpt>
      <trkpt lat="43.65349" lon="3.92754">
        <ele>114.301653</ele>
        <time>2025-04-20T14:37:19.454Z</time>
      </trkpt>
      <trkpt lat="43.65353" lon="3.92739">
        <ele>114.356057</ele>
        <time>2025-04-20T14:37:23.418Z</time>
      </trkpt>
      <trkpt lat="43.65356" lon="3.92726">
        <ele>114.402194</ele>
        <time>2025-04-20T14:37:27.439Z</time>
      </trkpt>
      <trkpt lat="43.65364" lon="3.92717">
        <ele>114.449983</ele>
        <time>2025-04-20T14:37:32.444Z</time>
      </trkpt>
      <trkpt lat="43.65372" lon="3.92706">
        <ele>114.501327</ele>
        <time>2025-04-20T14:37:37.424Z</time>
      </trkpt>
      <trkpt lat="43.65379" lon="3.92696">
        <ele>114.54971</ele>
        <time>2025-04-20T14:37:42.414Z</time>
      </trkpt>
      <trkpt lat="43.65388" lon="3.92688">
        <ele>114.598365</ele>
        <time>2025-04-20T14:37:49.437Z</time>
      </trkpt>
      <trkpt lat="43.65395" lon="3.92679">
        <ele>114.528</ele>
        <time>2025-04-20T14:37:56.454Z</time>
      </trkpt>
      <trkpt lat="43.65405" lon="3.92681">
        <ele>114.44609</ele>
        <time>2025-04-20T14:38:01.435Z</time>
      </trkpt>
      <trkpt lat="43.65414" lon="3.92689">
        <ele>114.361813</ele>
        <time>2025-04-20T14:38:05.441Z</time>
      </trkpt>
      <trkpt lat="43.65418" lon="3.92701">
        <ele>114.280001</ele>
        <time>2025-04-20T14:38:10.426Z</time>
      </trkpt>
      <trkpt lat="43.65426" lon="3.92716">
        <ele>114.171106</ele>
        <time>2025-04-20T14:39:01.462Z</time>
      </trkpt>
      <trkpt lat="43.65434" lon="3.92728">
        <ele>114.076057</ele>
        <time>2025-04-20T14:39:05.447Z</time>
      </trkpt>
      <trkpt lat="43.6544" lon="3.92737">
        <ele>114.001958</ele>
        <time>2025-04-20T14:39:09.439Z</time>
      </trkpt>
      <trkpt lat="43.65434" lon="3.92725">
        <ele>113.912338</ele>
        <time>2025-04-20T14:39:31.452Z</time>
      </trkpt>
      <trkpt lat="43.65427" lon="3.92714">
        <ele>113.82932</ele>
        <time>2025-04-20T14:39:35.448Z</time>
      </trkpt>
      <trkpt lat="43.65421" lon="3.92703">
        <ele>113.747872</ele>
        <time>2025-04-20T14:39:41.443Z</time>
      </trkpt>
      <trkpt lat="43.65417" lon="3.92691">
        <ele>113.670028</ele>
        <time>2025-04-20T14:39:48.456Z</time>
      </trkpt>
      <trkpt lat="43.65411" lon="3.92681">
        <ele>113.589431</ele>
        <time>2025-04-20T14:39:53.437Z</time>
      </trkpt>
      <trkpt lat="43.65407" lon="3.92669">
        <ele>113.514585</ele>
        <time>2025-04-20T14:39:58.440Z</time>
      </trkpt>
      <trkpt lat="43.65402" lon="3.92679">
        <ele>113.439385</ele>
        <time>2025-04-20T14:41:15.452Z</time>
      </trkpt>
      <trkpt lat="43.65393" lon="3.92681">
        <ele>113.363095</ele>
        <time>2025-04-20T14:41:20.436Z</time>
      </trkpt>
      <trkpt lat="43.65384" lon="3.92688">
        <ele>113.278501</ele>
        <time>2025-04-20T14:41:25.453Z</time>
      </trkpt>
      <trkpt lat="43.65375" lon="3.92691">
        <ele>113.200007</ele>
        <time>2025-04-20T14:41:30.426Z</time>
      </trkpt>
      <trkpt lat="43.65392" lon="3.92626">
        <ele>111.938382</ele>
        <time>2025-04-20T14:43:13.437Z</time>
      </trkpt>
      <trkpt lat="43.65399" lon="3.92617">
        <ele>111.676838</ele>
        <time>2025-04-20T14:43:45.460Z</time>
      </trkpt>
      <trkpt lat="43.65405" lon="3.92605">
        <ele>111.378549</ele>
        <time>2025-04-20T14:43:51.536Z</time>
      </trkpt>
      <trkpt lat="43.65488" lon="3.92407">
        <ele>106.939201</ele>
        <time>2025-04-20T14:45:00.449Z</time>
      </trkpt>
      <trkpt lat="43.6549" lon="3.92395">
        <ele>106.731904</ele>
        <time>2025-04-20T14:45:04.415Z</time>
      </trkpt>
      <trkpt lat="43.65492" lon="3.92381">
        <ele>106.496425</ele>
        <time>2025-04-20T14:45:09.445Z</time>
      </trkpt>
      <trkpt lat="43.65494" lon="3.92367">
        <ele>106.270908</ele>
        <time>2025-04-20T14:45:14.436Z</time>
      </trkpt>
      <trkpt lat="43.65496" lon="3.92355">
        <ele>106.069885</ele>
        <time>2025-04-20T14:45:18.428Z</time>
      </trkpt>
      <trkpt lat="43.65501" lon="3.92344">
        <ele>105.859863</ele>
        <time>2025-04-20T14:45:22.432Z</time>
      </trkpt>
      <trkpt lat="43.65504" lon="3.92331">
        <ele>105.635737</ele>
        <time>2025-04-20T14:45:26.450Z</time>
      </trkpt>
      <trkpt lat="43.65502" lon="3.92318">
        <ele>105.425724</ele>
        <time>2025-04-20T14:45:30.448Z</time>
      </trkpt>
      <trkpt lat="43.65497" lon="3.92306">
        <ele>105.192911</ele>
        <time>2025-04-20T14:45:34.442Z</time>
      </trkpt>
      <trkpt lat="43.65478" lon="3.92244">
        <ele>104.111585</ele>
        <time>2025-04-20T14:47:04.210Z</time>
      </trkpt>
      <trkpt lat="43.65481" lon="3.92221">
        <ele>104.060414</ele>
        <time>2025-04-20T14:48:51.533Z</time>
      </trkpt>
      <trkpt lat="43.65464" lon="3.92207">
        <ele>104.252769</ele>
        <time>2025-04-20T14:48:56.527Z</time>
      </trkpt>
      <trkpt lat="43.65459" lon="3.92196">
        <ele>104.351618</ele>
        <time>2025-04-20T14:49:01.434Z</time>
      </trkpt>
      <trkpt lat="43.65428" lon="3.92104">
        <ele>105.08746</ele>
        <time>2025-04-20T14:49:30.441Z</time>
      </trkpt>
      <trkpt lat="43.65425" lon="3.92091">
        <ele>105.184535</ele>
        <time>2025-04-20T14:49:34.436Z</time>
      </trkpt>
      <trkpt lat="43.65424" lon="3.92077">
        <ele>105.290257</ele>
        <time>2025-04-20T14:49:38.413Z</time>
      </trkpt>
      <trkpt lat="43.65429" lon="3.92065">
        <ele>105.390837</ele>
        <time>2025-04-20T14:49:42.433Z</time>
      </trkpt>
      <trkpt lat="43.6543" lon="3.92052">
        <ele>105.485838</ele>
        <time>2025-04-20T14:49:46.414Z</time>
      </trkpt>
      <trkpt lat="43.65424" lon="3.92039">
        <ele>105.599601</ele>
        <time>2025-04-20T14:49:50.427Z</time>
      </trkpt>
      <trkpt lat="43.65414" lon="3.92033">
        <ele>105.716371</ele>
        <time>2025-04-20T14:49:54.428Z</time>
      </trkpt>
      <trkpt lat="43.65401" lon="3.92">
        <ele>106.134648</ele>
        <time>2025-04-20T14:50:23.708Z</time>
      </trkpt>
      <trkpt lat="43.65382" lon="3.9195">
        <ele>106.827551</ele>
        <time>2025-04-20T14:50:24.940Z</time>
      </trkpt>
      <trkpt lat="43.65367" lon="3.91933">
        <ele>107.15088</ele>
        <time>2025-04-20T14:50:25.922Z</time>
      </trkpt>
      <trkpt lat="43.65362" lon="3.9192">
        <ele>107.329072</ele>
        <time>2025-04-20T14:50:29.439Z</time>
      </trkpt>
      <trkpt lat="43.65358" lon="3.91908">
        <ele>107.49614</ele>
        <time>2025-04-20T14:50:34.433Z</time>
      </trkpt>
      <trkpt lat="43.65302" lon="3.91794">
        <ele>109.565546</ele>
        <time>2025-04-20T14:51:06.349Z</time>
      </trkpt>
      <trkpt lat="43.65311" lon="3.91804">
        <ele>109.945836</ele>
        <time>2025-04-20T14:51:09.371Z</time>
      </trkpt>
      <trkpt lat="43.6532" lon="3.91814">
        <ele>110.363205</ele>
        <time>2025-04-20T14:51:11.389Z</time>
      </trkpt>
      <trkpt lat="43.65315" lon="3.91802">
        <ele>110.727926</ele>
        <time>2025-04-20T14:51:15.432Z</time>
      </trkpt>
      <trkpt lat="43.65309" lon="3.91788">
        <ele>111.123773</ele>
        <time>2025-04-20T14:51:19.430Z</time>
      </trkpt>
      <trkpt lat="43.65305" lon="3.91772">
        <ele>111.522326</ele>
        <time>2025-04-20T14:51:23.447Z</time>
      </trkpt>
      <trkpt lat="43.65243" lon="3.91676">
        <ele>114.69549</ele>
        <time>2025-04-20T14:51:55.935Z</time>
      </trkpt>
      <trkpt lat="43.65237" lon="3.91658">
        <ele>114.838676</ele>
        <time>2025-04-20T14:51:58.433Z</time>
      </trkpt>
      <trkpt lat="43.65234" lon="3.91643">
        <ele>114.73876</ele>
        <time>2025-04-20T14:52:00.445Z</time>
      </trkpt>
      <trkpt lat="43.6523" lon="3.91628">
        <ele>114.639102</ele>
        <time>2025-04-20T14:52:02.428Z</time>
      </trkpt>
      <trkpt lat="43.65225" lon="3.91614">
        <ele>114.542609</ele>
        <time>2025-04-20T14:52:04.445Z</time>
      </trkpt>
      <trkpt lat="43.65221" lon="3.91601">
        <ele>114.453079</ele>
        <time>2025-04-20T14:52:06.436Z</time>
      </trkpt>
      <trkpt lat="43.65032" lon="3.91156">
        <ele>110.75807</ele>
        <time>2025-04-20T14:53:44.879Z</time>
      </trkpt>
      <trkpt lat="43.6504" lon="3.91162">
        <ele>110.579672</ele>
        <time>2025-04-20T14:53:46.371Z</time>
      </trkpt>
      <trkpt lat="43.65068" lon="3.91161">
        <ele>110.041191</ele>
        <time>2025-04-20T14:53:47.409Z</time>
      </trkpt>
      <trkpt lat="43.65059" lon="3.91167">
        <ele>109.854278</ele>
        <time>2025-04-20T14:53:51.386Z</time>
      </trkpt>
      <trkpt lat="43.65049" lon="3.91163">
        <ele>109.658231</ele>
        <time>2025-04-20T14:53:55.376Z</time>
      </trkpt>
      <trkpt lat="43.65036" lon="3.91156">
        <ele>109.39042</ele>
        <time>2025-04-20T14:53:56.394Z</time>
      </trkpt>
      <trkpt lat="43.65027" lon="3.91153">
        <ele>109.203973</ele>
        <time>2025-04-20T14:53:59.424Z</time>
      </trkpt>
      <trkpt lat="43.65018" lon="3.91151">
        <ele>109.029158</ele>
        <time>2025-04-20T14:54:02.430Z</time>
      </trkpt>
      <trkpt lat="43.65009" lon="3.91149">
        <ele>108.852684</ele>
        <time>2025-04-20T14:54:05.404Z</time>
      </trkpt>
      <trkpt lat="43.65" lon="3.91145">
        <ele>108.67888</ele>
        <time>2025-04-20T14:54:08.436Z</time>
      </trkpt>
      <trkpt lat="43.64989" lon="3.91142">
        <ele>108.446898</ele>
        <time>2025-04-20T14:54:12.432Z</time>
      </trkpt>
      <trkpt lat="43.64958" lon="3.91135">
        <ele>107.737712</ele>
        <time>2025-04-20T14:54:27.941Z</time>
      </trkpt>
      <trkpt lat="43.64948" lon="3.91131">
        <ele>107.493051</ele>
        <time>2025-04-20T14:54:31.414Z</time>
      </trkpt>
      <trkpt lat="43.64939" lon="3.91126">
        <ele>107.279648</ele>
        <time>2025-04-20T14:54:34.434Z</time>
      </trkpt>
      <trkpt lat="43.64932" lon="3.91118">
        <ele>107.075241</ele>
        <time>2025-04-20T14:54:37.450Z</time>
      </trkpt>
      <trkpt lat="43.64711" lon="3.90994">
        <ele>106.011631</ele>
        <time>2025-04-20T14:56:03.814Z</time>
      </trkpt>
      <trkpt lat="43.64697" lon="3.91008">
        <ele>106.21276</ele>
        <time>2025-04-20T14:56:04.951Z</time>
      </trkpt>
      <trkpt lat="43.6471" lon="3.90998">
        <ele>106.389532</ele>
        <time>2025-04-20T14:56:07.382Z</time>
      </trkpt>
      <trkpt lat="43.64701" lon="3.91">
        <ele>106.504167</ele>
        <time>2025-04-20T14:56:39.441Z</time>
      </trkpt>
      <trkpt lat="43.64692" lon="3.90996">
        <ele>106.619099</ele>
        <time>2025-04-20T14:56:48.425Z</time>
      </trkpt>
      <trkpt lat="43.64683" lon="3.90997">
        <ele>106.359672</ele>
        <time>2025-04-20T14:56:59.415Z</time>
      </trkpt>
      <trkpt lat="43.645" lon="3.91016">
        <ele>97.123881</ele>
        <time>2025-04-20T14:58:08.449Z</time>
      </trkpt>
      <trkpt lat="43.64486" lon="3.9102">
        <ele>97.739722</ele>
        <time>2025-04-20T14:58:10.416Z</time>
      </trkpt>
      <trkpt lat="43.64474" lon="3.91024">
        <ele>98.300167</ele>
        <time>2025-04-20T14:58:12.417Z</time>
      </trkpt>
      <trkpt lat="43.64462" lon="3.91027">
        <ele>98.828646</ele>
        <time>2025-04-20T14:58:14.425Z</time>
      </trkpt>
      <trkpt lat="43.64452" lon="3.91029">
        <ele>99.311998</ele>
        <time>2025-04-20T14:58:16.425Z</time>
      </trkpt>
      <trkpt lat="43.64441" lon="3.91033">
        <ele>99.786006</ele>
        <time>2025-04-20T14:58:18.423Z</time>
      </trkpt>
      <trkpt lat="43.64432" lon="3.91036">
        <ele>100.214078</ele>
        <time>2025-04-20T14:58:20.428Z</time>
      </trkpt>
      <trkpt lat="43.64422" lon="3.91037">
        <ele>100.648054</ele>
        <time>2025-04-20T14:58:22.418Z</time>
      </trkpt>
      <trkpt lat="43.64413" lon="3.91038">
        <ele>101.062337</ele>
        <time>2025-04-20T14:58:24.423Z</time>
      </trkpt>
      <trkpt lat="43.64402" lon="3.91039">
        <ele>101.524113</ele>
        <time>2025-04-20T14:58:26.426Z</time>
      </trkpt>
      <trkpt lat="43.64393" lon="3.91039">
        <ele>101.928125</ele>
        <time>2025-04-20T14:58:28.434Z</time>
      </trkpt>
      <trkpt lat="43.64382" lon="3.9104">
        <ele>102.425488</ele>
        <time>2025-04-20T14:58:31.448Z</time>
      </trkpt>
      <trkpt lat="43.64371" lon="3.91042">
        <ele>102.939933</ele>
        <time>2025-04-20T14:58:34.439Z</time>
      </trkpt>
      <trkpt lat="43.64363" lon="3.9105">
        <ele>103.360238</ele>
        <time>2025-04-20T14:58:39.431Z</time>
      </trkpt>
      <trkpt lat="43.64358" lon="3.91061">
        <ele>103.800128</ele>
        <time>2025-04-20T14:58:59.446Z</time>
      </trkpt>
      <trkpt lat="43.64361" lon="3.91047">
        <ele>104.286423</ele>
        <time>2025-04-20T14:59:10.523Z</time>
      </trkpt>
      <trkpt lat="43.64358" lon="3.91029">
        <ele>104.640467</ele>
        <time>2025-04-20T14:59:12.522Z</time>
      </trkpt>
      <trkpt lat="43.64349" lon="3.91014">
        <ele>104.38592</ele>
        <time>2025-04-20T14:59:14.555Z</time>
      </trkpt>
      <trkpt lat="43.64345" lon="3.90999">
        <ele>104.16557</ele>
        <time>2025-04-20T14:59:21.417Z</time>
      </trkpt>
      <trkpt lat="43.64341" lon="3.90987">
        <ele>103.999144</ele>
        <time>2025-04-20T14:59:24.432Z</time>
      </trkpt>
      <trkpt lat="43.64338" lon="3.90975">
        <ele>103.829062</ele>
        <time>2025-04-20T14:59:27.434Z</time>
      </trkpt>
      <trkpt lat="43.64335" lon="3.90961">
        <ele>103.640849</ele>
        <time>2025-04-20T14:59:31.435Z</time>
      </trkpt>
      <trkpt lat="43.64328" lon="3.9097">
        <ele>103.460161</ele>
        <time>2025-04-20T15:01:18.456Z</time>
      </trkpt>
      <trkpt lat="43.64333" lon="3.90985">
        <ele>103.244126</ele>
        <time>2025-04-20T15:01:22.456Z</time>
      </trkpt>
      <trkpt lat="43.64313" lon="3.90994">
        <ele>102.861266</ele>
        <time>2025-04-20T15:02:10.448Z</time>
      </trkpt>
      <trkpt lat="43.64304" lon="3.90989">
        <ele>102.679453</ele>
        <time>2025-04-20T15:02:13.404Z</time>
      </trkpt>
      <trkpt lat="43.64295" lon="3.90981">
        <ele>102.491</ele>
        <time>2025-04-20T15:02:16.420Z</time>
      </trkpt>
      <trkpt lat="43.64287" lon="3.90973">
        <ele>102.318319</ele>
        <time>2025-04-20T15:02:19.442Z</time>
      </trkpt>
      <trkpt lat="43.64279" lon="3.90965">
        <ele>102.13213</ele>
        <time>2025-04-20T15:02:22.433Z</time>
      </trkpt>
      <trkpt lat="43.64271" lon="3.90959">
        <ele>101.964172</ele>
        <time>2025-04-20T15:02:25.430Z</time>
      </trkpt>
      <trkpt lat="43.64263" lon="3.90953">
        <ele>101.798139</ele>
        <time>2025-04-20T15:02:29.383Z</time>
      </trkpt>
      <trkpt lat="43.64254" lon="3.90947">
        <ele>101.625237</ele>
        <time>2025-04-20T15:02:59.433Z</time>
      </trkpt>
      <trkpt lat="43.64247" lon="3.90938">
        <ele>101.441419</ele>
        <time>2025-04-20T15:03:03.438Z</time>
      </trkpt>
      <trkpt lat="43.64243" lon="3.90923">
        <ele>101.632577</ele>
        <time>2025-04-20T15:03:07.431Z</time>
      </trkpt>
      <trkpt lat="43.64244" lon="3.90938">
        <ele>101.831889</ele>
        <time>2025-04-20T15:03:17.456Z</time>
      </trkpt>
      <trkpt lat="43.64248" lon="3.90953">
        <ele>102.054631</ele>
        <time>2025-04-20T15:04:02.899Z</time>
      </trkpt>
      <trkpt lat="43.64198" lon="3.91053">
        <ele>103.682703</ele>
        <time>2025-04-20T15:04:04.421Z</time>
      </trkpt>
      <trkpt lat="43.64203" lon="3.91069">
        <ele>103.921264</ele>
        <time>2025-04-20T15:05:58.695Z</time>
      </trkpt>
      <trkpt lat="43.64199" lon="3.91058">
        <ele>104.091776</ele>
        <time>2025-04-20T15:06:22.451Z</time>
      </trkpt>
      <trkpt lat="43.64102" lon="3.91049">
        <ele>103.551899</ele>
        <time>2025-04-20T15:08:40.432Z</time>
      </trkpt>
      <trkpt lat="43.64092" lon="3.91047">
        <ele>103.335945</ele>
        <time>2025-04-20T15:08:44.445Z</time>
      </trkpt>
      <trkpt lat="43.64081" lon="3.91041">
        <ele>103.098749</ele>
        <time>2025-04-20T15:08:48.442Z</time>
      </trkpt>
      <trkpt lat="43.6407" lon="3.91037">
        <ele>102.864226</ele>
        <time>2025-04-20T15:08:53.425Z</time>
      </trkpt>
      <trkpt lat="43.64061" lon="3.91027">
        <ele>102.637744</ele>
        <time>2025-04-20T15:08:56.435Z</time>
      </trkpt>
      <trkpt lat="43.64057" lon="3.91016">
        <ele>102.445629</ele>
        <time>2025-04-20T15:09:02.383Z</time>
      </trkpt>
      <trkpt lat="43.64049" lon="3.90999">
        <ele>102.147275</ele>
        <time>2025-04-20T15:09:03.941Z</time>
      </trkpt>
      <trkpt lat="43.64043" lon="3.90988">
        <ele>101.939739</ele>
        <time>2025-04-20T15:09:06.438Z</time>
      </trkpt>
      <trkpt lat="43.64037" lon="3.90976">
        <ele>101.73717</ele>
        <time>2025-04-20T15:09:08.422Z</time>
      </trkpt>
      <trkpt lat="43.64027" lon="3.90966">
        <ele>101.484355</ele>
        <time>2025-04-20T15:09:11.417Z</time>
      </trkpt>
      <trkpt lat="43.64014" lon="3.90964">
        <ele>101.211673</ele>
        <time>2025-04-20T15:09:14.417Z</time>
      </trkpt>
      <trkpt lat="43.64001" lon="3.90966">
        <ele>100.790608</ele>
        <time>2025-04-20T15:09:17.450Z</time>
      </trkpt>
      <trkpt lat="43.63988" lon="3.90969">
        <ele>100.281904</ele>
        <time>2025-04-20T15:09:20.434Z</time>
      </trkpt>
      <trkpt lat="43.63975" lon="3.90972">
        <ele>99.789709</ele>
        <time>2025-04-20T15:09:23.456Z</time>
      </trkpt>
      <trkpt lat="43.63963" lon="3.90974">
        <ele>99.314841</ele>
        <time>2025-04-20T15:09:26.420Z</time>
      </trkpt>
      <trkpt lat="43.63952" lon="3.90976">
        <ele>98.906039</ele>
        <time>2025-04-20T15:09:29.409Z</time>
      </trkpt>
      <trkpt lat="43.63943" lon="3.90977">
        <ele>98.548137</ele>
        <time>2025-04-20T15:09:32.439Z</time>
      </trkpt>
      <trkpt lat="43.63933" lon="3.90977">
        <ele>98.175459</ele>
        <time>2025-04-20T15:09:37.432Z</time>
      </trkpt>
      <trkpt lat="43.63927" lon="3.90965">
        <ele>97.776894</ele>
        <time>2025-04-20T15:09:41.431Z</time>
      </trkpt>
      <trkpt lat="43.63921" lon="3.90953">
        <ele>97.358385</ele>
        <time>2025-04-20T15:09:45.448Z</time>
      </trkpt>
      <trkpt lat="43.6391" lon="3.90944">
        <ele>96.897583</ele>
        <time>2025-04-20T15:09:49.443Z</time>
      </trkpt>
      <trkpt lat="43.639" lon="3.90943">
        <ele>96.507833</ele>
        <time>2025-04-20T15:09:52.448Z</time>
      </trkpt>
      <trkpt lat="43.63729" lon="3.90995">
        <ele>93.500082</ele>
        <time>2025-04-20T15:10:42.420Z</time>
      </trkpt>
      <trkpt lat="43.63715" lon="3.90989">
        <ele>93.411559</ele>
        <time>2025-04-20T15:10:45.422Z</time>
      </trkpt>
      <trkpt lat="43.63706" lon="3.90995">
        <ele>93.348492</ele>
        <time>2025-04-20T15:10:50.422Z</time>
      </trkpt>
      <trkpt lat="43.637" lon="3.91009">
        <ele>93.27648</ele>
        <time>2025-04-20T15:10:54.455Z</time>
      </trkpt>
      <trkpt lat="43.63695" lon="3.91021">
        <ele>93.216724</ele>
        <time>2025-04-20T15:10:57.420Z</time>
      </trkpt>
      <trkpt lat="43.63688" lon="3.91031">
        <ele>93.159469</ele>
        <time>2025-04-20T15:11:00.416Z</time>
      </trkpt>
      <trkpt lat="43.63682" lon="3.91041">
        <ele>93.102541</ele>
        <time>2025-04-20T15:11:03.431Z</time>
      </trkpt>
      <trkpt lat="43.63675" lon="3.91049">
        <ele>93.055633</ele>
        <time>2025-04-20T15:11:06.436Z</time>
      </trkpt>
      <trkpt lat="43.63539" lon="3.90821">
        <ele>91.707748</ele>
        <time>2025-04-20T15:12:13.135Z</time>
      </trkpt>
      <trkpt lat="43.63482" lon="3.90752">
        <ele>90.87557</ele>
        <time>2025-04-20T15:12:13.883Z</time>
      </trkpt>
      <trkpt lat="43.63466" lon="3.90737">
        <ele>90.661415</ele>
        <time>2025-04-20T15:12:14.938Z</time>
      </trkpt>
      <trkpt lat="43.63462" lon="3.90719">
        <ele>90.517158</ele>
        <time>2025-04-20T15:12:17.421Z</time>
      </trkpt>
      <trkpt lat="43.63458" lon="3.90707">
        <ele>90.409415</ele>
        <time>2025-04-20T15:12:19.413Z</time>
      </trkpt>
      <trkpt lat="43.63454" lon="3.90691">
        <ele>90.274481</ele>
        <time>2025-04-20T15:12:22.419Z</time>
      </trkpt>
      <trkpt lat="43.63444" lon="3.90687">
        <ele>89.986939</ele>
        <time>2025-04-20T15:12:25.436Z</time>
      </trkpt>
      <trkpt lat="43.63436" lon="3.90694">
        <ele>89.613043</ele>
        <time>2025-04-20T15:12:27.451Z</time>
      </trkpt>
      <trkpt lat="43.63427" lon="3.90703">
        <ele>89.175187</ele>
        <time>2025-04-20T15:12:29.442Z</time>
      </trkpt>
      <trkpt lat="43.63419" lon="3.90708">
        <ele>88.808971</ele>
        <time>2025-04-20T15:12:34.445Z</time>
      </trkpt>
      <trkpt lat="43.63429" lon="3.90705">
        <ele>88.391902</ele>
        <time>2025-04-20T15:12:47.459Z</time>
      </trkpt>
      <trkpt lat="43.63437" lon="3.90697">
        <ele>87.979043</ele>
        <time>2025-04-20T15:12:51.413Z</time>
      </trkpt>
      <trkpt lat="43.63447" lon="3.9069">
        <ele>87.547448</ele>
        <time>2025-04-20T15:12:56.433Z</time>
      </trkpt>
      <trkpt lat="43.63453" lon="3.90678">
        <ele>87.12912</ele>
        <time>2025-04-20T15:13:01.449Z</time>
      </trkpt>
      <trkpt lat="43.63449" lon="3.90666">
        <ele>86.739165</ele>
        <time>2025-04-20T15:13:04.441Z</time>
      </trkpt>
      <trkpt lat="43.63444" lon="3.90654">
        <ele>86.355065</ele>
        <time>2025-04-20T15:13:06.431Z</time>
      </trkpt>
      <trkpt lat="43.63438" lon="3.9064">
        <ele>85.874377</ele>
        <time>2025-04-20T15:13:08.431Z</time>
      </trkpt>
      <trkpt lat="43.63431" lon="3.90626">
        <ele>85.388726</ele>
        <time>2025-04-20T15:13:10.428Z</time>
      </trkpt>
      <trkpt lat="43.63424" lon="3.90611">
        <ele>84.870486</ele>
        <time>2025-04-20T15:13:12.428Z</time>
      </trkpt>
      <trkpt lat="43.63418" lon="3.90595">
        <ele>84.339863</ele>
        <time>2025-04-20T15:13:14.445Z</time>
      </trkpt>
      <trkpt lat="43.63411" lon="3.90581">
        <ele>83.829637</ele>
        <time>2025-04-20T15:13:16.431Z</time>
      </trkpt>
      <trkpt lat="43.63402" lon="3.90577">
        <ele>83.460711</ele>
        <time>2025-04-20T15:13:25.517Z</time>
      </trkpt>
      <trkpt lat="43.63395" lon="3.90566">
        <ele>83.021228</ele>
        <time>2025-04-20T15:13:26.420Z</time>
      </trkpt>
      <trkpt lat="43.63385" lon="3.90544">
        <ele>82.644494</ele>
        <time>2025-04-20T15:13:27.460Z</time>
      </trkpt>
      <trkpt lat="43.63367" lon="3.90526">
        <ele>82.215978</ele>
        <time>2025-04-20T15:13:29.422Z</time>
      </trkpt>
      <trkpt lat="43.63359" lon="3.90512">
        <ele>81.971858</ele>
        <time>2025-04-20T15:13:30.416Z</time>
      </trkpt>
      <trkpt lat="43.63349" lon="3.90493">
        <ele>81.64533</ele>
        <time>2025-04-20T15:13:32.425Z</time>
      </trkpt>
      <trkpt lat="43.63342" lon="3.90478">
        <ele>81.386853</ele>
        <time>2025-04-20T15:13:34.404Z</time>
      </trkpt>
      <trkpt lat="43.63335" lon="3.90465">
        <ele>81.179261</ele>
        <time>2025-04-20T15:13:36.437Z</time>
      </trkpt>
      <trkpt lat="43.6333" lon="3.90451">
        <ele>80.962608</ele>
        <time>2025-04-20T15:13:38.436Z</time>
      </trkpt>
      <trkpt lat="43.63326" lon="3.9044">
        <ele>80.780607</ele>
        <time>2025-04-20T15:13:40.417Z</time>
      </trkpt>
      <trkpt lat="43.6332" lon="3.90424">
        <ele>80.535256</ele>
        <time>2025-04-20T15:13:43.408Z</time>
      </trkpt>
      <trkpt lat="43.63313" lon="3.90413">
        <ele>80.333629</ele>
        <time>2025-04-20T15:13:46.404Z</time>
      </trkpt>
      <trkpt lat="43.63302" lon="3.90406">
        <ele>80.102431</ele>
        <time>2025-04-20T15:13:49.434Z</time>
      </trkpt>
      <trkpt lat="43.63292" lon="3.90396">
        <ele>79.86463</ele>
        <time>2025-04-20T15:13:52.422Z</time>
      </trkpt>
      <trkpt lat="43.63289" lon="3.90384">
        <ele>79.692015</ele>
        <time>2025-04-20T15:13:54.439Z</time>
      </trkpt>
      <trkpt lat="43.63288" lon="3.90365">
        <ele>79.461773</ele>
        <time>2025-04-20T15:13:57.459Z</time>
      </trkpt>
      <trkpt lat="43.63284" lon="3.90333">
        <ele>79.130852</ele>
        <time>2025-04-20T15:14:05.942Z</time>
      </trkpt>
      <trkpt lat="43.63278" lon="3.90314">
        <ele>78.930615</ele>
        <time>2025-04-20T15:14:06.931Z</time>
      </trkpt>
      <trkpt lat="43.63275" lon="3.90299">
        <ele>78.776989</ele>
        <time>2025-04-20T15:14:09.436Z</time>
      </trkpt>
      <trkpt lat="43.63273" lon="3.90286">
        <ele>78.642616</ele>
        <time>2025-04-20T15:14:11.430Z</time>
      </trkpt>
      <trkpt lat="43.63268" lon="3.90269">
        <ele>78.467212</ele>
        <time>2025-04-20T15:14:14.440Z</time>
      </trkpt>
      <trkpt lat="43.63265" lon="3.90257">
        <ele>78.331475</ele>
        <time>2025-04-20T15:14:16.411Z</time>
      </trkpt>
      <trkpt lat="43.6326" lon="3.90239">
        <ele>78.144445</ele>
        <time>2025-04-20T15:14:19.414Z</time>
      </trkpt>
      <trkpt lat="43.63256" lon="3.90227">
        <ele>78.014509</ele>
        <time>2025-04-20T15:14:21.413Z</time>
      </trkpt>
      <trkpt lat="43.63253" lon="3.90215">
        <ele>77.885746</ele>
        <time>2025-04-20T15:14:23.414Z</time>
      </trkpt>
      <trkpt lat="43.6325" lon="3.90197">
        <ele>77.707309</ele>
        <time>2025-04-20T15:14:26.432Z</time>
      </trkpt>
      <trkpt lat="43.63243" lon="3.90181">
        <ele>77.522001</ele>
        <time>2025-04-20T15:14:29.383Z</time>
      </trkpt>
      <trkpt lat="43.63238" lon="3.90169">
        <ele>77.383392</ele>
        <time>2025-04-20T15:14:31.424Z</time>
      </trkpt>
      <trkpt lat="43.63233" lon="3.90154">
        <ele>77.217506</ele>
        <time>2025-04-20T15:14:34.409Z</time>
      </trkpt>
      <trkpt lat="43.63196" lon="3.90081">
        <ele>77.117923</ele>
        <time>2025-04-20T15:14:52.396Z</time>
      </trkpt>
      <trkpt lat="43.63188" lon="3.9009">
        <ele>77.126979</ele>
        <time>2025-04-20T15:14:54.447Z</time>
      </trkpt>
      <trkpt lat="43.63177" lon="3.90101">
        <ele>77.13854</ele>
        <time>2025-04-20T15:14:57.406Z</time>
      </trkpt>
      <trkpt lat="43.63169" lon="3.90107">
        <ele>77.147222</ele>
        <time>2025-04-20T15:14:59.415Z</time>
      </trkpt>
      <trkpt lat="43.6316" lon="3.90113">
        <ele>77.155845</ele>
        <time>2025-04-20T15:15:01.414Z</time>
      </trkpt>
      <trkpt lat="43.63148" lon="3.9012">
        <ele>77.166656</ele>
        <time>2025-04-20T15:15:04.412Z</time>
      </trkpt>
      <trkpt lat="43.63137" lon="3.90127">
        <ele>77.177246</ele>
        <time>2025-04-20T15:15:07.444Z</time>
      </trkpt>
      <trkpt lat="43.63125" lon="3.90133">
        <ele>77.188578</ele>
        <time>2025-04-20T15:15:10.436Z</time>
      </trkpt>
      <trkpt lat="43.63113" lon="3.90139">
        <ele>77.199906</ele>
        <time>2025-04-20T15:15:13.421Z</time>
      </trkpt>
      <trkpt lat="43.63101" lon="3.90146">
        <ele>77.210831</ele>
        <time>2025-04-20T15:15:16.440Z</time>
      </trkpt>
      <trkpt lat="43.63089" lon="3.90153">
        <ele>77.222501</ele>
        <time>2025-04-20T15:15:19.422Z</time>
      </trkpt>
      <trkpt lat="43.63078" lon="3.90163">
        <ele>77.093561</ele>
        <time>2025-04-20T15:15:22.393Z</time>
      </trkpt>
      <trkpt lat="43.6307" lon="3.90172">
        <ele>76.895142</ele>
        <time>2025-04-20T15:15:25.432Z</time>
      </trkpt>
      <trkpt lat="43.63061" lon="3.90165">
        <ele>76.696168</ele>
        <time>2025-04-20T15:15:29.444Z</time>
      </trkpt>
      <trkpt lat="43.63056" lon="3.90153">
        <ele>76.509135</ele>
        <time>2025-04-20T15:15:32.420Z</time>
      </trkpt>
      <trkpt lat="43.62952" lon="3.89828">
        <ele>75.17633</ele>
        <time>2025-04-20T15:16:45.921Z</time>
      </trkpt>
      <trkpt lat="43.62949" lon="3.89815">
        <ele>75.299515</ele>
        <time>2025-04-20T15:16:52.449Z</time>
      </trkpt>
      <trkpt lat="43.62949" lon="3.89801">
        <ele>75.419884</ele>
        <time>2025-04-20T15:17:04.613Z</time>
      </trkpt>
      <trkpt lat="43.62896" lon="3.89738">
        <ele>74.328736</ele>
        <time>2025-04-20T15:18:11.419Z</time>
      </trkpt>
      <trkpt lat="43.62896" lon="3.89549">
        <ele>65.020525</ele>
        <time>2025-04-20T15:18:12.422Z</time>
      </trkpt>
      <trkpt lat="43.62888" lon="3.89623">
        <ele>65.316882</ele>
        <time>2025-04-20T15:20:20.575Z</time>
      </trkpt>
      <trkpt lat="43.62883" lon="3.896">
        <ele>66.089109</ele>
        <time>2025-04-20T15:20:21.911Z</time>
      </trkpt>
      <trkpt lat="43.62875" lon="3.89607">
        <ele>66.495587</ele>
        <time>2025-04-20T15:20:33.438Z</time>
      </trkpt>
      <trkpt lat="43.62866" lon="3.89617">
        <ele>67.038799</ele>
        <time>2025-04-20T15:20:37.421Z</time>
      </trkpt>
      <trkpt lat="43.62872" lon="3.89633">
        <ele>67.603193</ele>
        <time>2025-04-20T15:20:40.744Z</time>
      </trkpt>
      <trkpt lat="43.6286" lon="3.89625">
        <ele>68.171218</ele>
        <time>2025-04-20T15:20:41.915Z</time>
      </trkpt>
      <trkpt lat="43.62853" lon="3.89638">
        <ele>68.722677</ele>
        <time>2025-04-20T15:20:44.418Z</time>
      </trkpt>
      <trkpt lat="43.62847" lon="3.89651">
        <ele>69.224356</ele>
        <time>2025-04-20T15:20:48.412Z</time>
      </trkpt>
      <trkpt lat="43.6284" lon="3.89661">
        <ele>69.668676</ele>
        <time>2025-04-20T15:20:51.435Z</time>
      </trkpt>
      <trkpt lat="43.62836" lon="3.89674">
        <ele>70.124129</ele>
        <time>2025-04-20T15:20:55.437Z</time>
      </trkpt>
      <trkpt lat="43.62835" lon="3.89686">
        <ele>70.536399</ele>
        <time>2025-04-20T15:20:59.427Z</time>
      </trkpt>
      <trkpt lat="43.62834" lon="3.89701">
        <ele>71.007992</ele>
        <time>2025-04-20T15:21:04.443Z</time>
      </trkpt>
      <trkpt lat="43.62834" lon="3.89715">
        <ele>71.475623</ele>
        <time>2025-04-20T15:21:08.440Z</time>
      </trkpt>
      <trkpt lat="43.62834" lon="3.89762">
        <ele>71.949498</ele>
        <time>2025-04-20T15:21:26.947Z</time>
      </trkpt>
      <trkpt lat="43.62827" lon="3.89753">
        <ele>71.981948</ele>
        <time>2025-04-20T15:21:32.444Z</time>
      </trkpt>
      <trkpt lat="43.62825" lon="3.89741">
        <ele>72.014887</ele>
        <time>2025-04-20T15:21:35.446Z</time>
      </trkpt>
      <trkpt lat="43.62361" lon="3.8924">
        <ele>73.830565</ele>
        <time>2025-04-20T15:24:17.328Z</time>
      </trkpt>
      <trkpt lat="43.6235" lon="3.8923">
        <ele>73.839874</ele>
        <time>2025-04-20T15:24:18.412Z</time>
      </trkpt>
      <trkpt lat="43.62356" lon="3.89222">
        <ele>73.845881</ele>
        <time>2025-04-20T15:24:27.454Z</time>
      </trkpt>
      <trkpt lat="43.62348" lon="3.89213">
        <ele>73.852928</ele>
        <time>2025-04-20T15:24:48.455Z</time>
      </trkpt>
      <trkpt lat="43.62339" lon="3.89205">
        <ele>73.859836</ele>
        <time>2025-04-20T15:24:52.407Z</time>
      </trkpt>
      <trkpt lat="43.6211" lon="3.88974">
        <ele>75.621734</ele>
        <time>2025-04-20T15:25:57.948Z</time>
      </trkpt>
      <trkpt lat="43.62099" lon="3.88964">
        <ele>75.47424</ele>
        <time>2025-04-20T15:26:00.424Z</time>
      </trkpt>
      <trkpt lat="43.6209" lon="3.88953">
        <ele>75.326476</ele>
        <time>2025-04-20T15:26:02.435Z</time>
      </trkpt>
      <trkpt lat="43.62082" lon="3.88943">
        <ele>75.200612</ele>
        <time>2025-04-20T15:26:04.428Z</time>
      </trkpt>
      <trkpt lat="43.62076" lon="3.88932">
        <ele>75.085214</ele>
        <time>2025-04-20T15:26:06.433Z</time>
      </trkpt>
      <trkpt lat="43.6207" lon="3.88923">
        <ele>74.975612</ele>
        <time>2025-04-20T15:26:08.439Z</time>
      </trkpt>
      <trkpt lat="43.61967" lon="3.88772">
        <ele>73.255021</ele>
        <time>2025-04-20T15:26:36.816Z</time>
      </trkpt>
      <trkpt lat="43.61957" lon="3.88772">
        <ele>73.141613</ele>
        <time>2025-04-20T15:26:37.818Z</time>
      </trkpt>
      <trkpt lat="43.61947" lon="3.88764">
        <ele>73.013131</ele>
        <time>2025-04-20T15:26:39.832Z</time>
      </trkpt>
      <trkpt lat="43.61936" lon="3.88759">
        <ele>72.884126</ele>
        <time>2025-04-20T15:26:41.830Z</time>
      </trkpt>
      <trkpt lat="43.61924" lon="3.88755">
        <ele>72.741994</ele>
        <time>2025-04-20T15:26:44.822Z</time>
      </trkpt>
      <trkpt lat="43.61917" lon="3.88744">
        <ele>72.622288</ele>
        <time>2025-04-20T15:26:47.523Z</time>
      </trkpt>
      <trkpt lat="43.61906" lon="3.88736">
        <ele>72.488181</ele>
        <time>2025-04-20T15:26:56.537Z</time>
      </trkpt>
      <trkpt lat="43.61895" lon="3.88725">
        <ele>72.337197</ele>
        <time>2025-04-20T15:26:58.525Z</time>
      </trkpt>
      <trkpt lat="43.61885" lon="3.88713">
        <ele>72.176503</ele>
        <time>2025-04-20T15:27:00.527Z</time>
      </trkpt>
      <trkpt lat="43.61879" lon="3.887">
        <ele>71.88727</ele>
        <time>2025-04-20T15:27:02.545Z</time>
      </trkpt>
      <trkpt lat="43.61902" lon="3.88759">
        <ele>70.671113</ele>
        <time>2025-04-20T15:27:04.541Z</time>
      </trkpt>
      <trkpt lat="43.619" lon="3.88744">
        <ele>70.391429</ele>
        <time>2025-04-20T15:27:06.435Z</time>
      </trkpt>
      <trkpt lat="43.61897" lon="3.88732">
        <ele>70.167025</ele>
        <time>2025-04-20T15:27:08.408Z</time>
      </trkpt>
      <trkpt lat="43.61888" lon="3.88721">
        <ele>69.872267</ele>
        <time>2025-04-20T15:27:11.434Z</time>
      </trkpt>
      <trkpt lat="43.6188" lon="3.88708">
        <ele>69.560411</ele>
        <time>2025-04-20T15:27:14.431Z</time>
      </trkpt>
      <trkpt lat="43.6187" lon="3.88699">
        <ele>69.268778</ele>
        <time>2025-04-20T15:27:17.412Z</time>
      </trkpt>
      <trkpt lat="43.61858" lon="3.8869">
        <ele>68.938591</ele>
        <time>2025-04-20T15:27:20.435Z</time>
      </trkpt>
      <trkpt lat="43.6185" lon="3.88684">
        <ele>68.711234</ele>
        <time>2025-04-20T15:27:22.443Z</time>
      </trkpt>
      <trkpt lat="43.6184" lon="3.88673">
        <ele>68.400073</ele>
        <time>2025-04-20T15:27:25.423Z</time>
      </trkpt>
      <trkpt lat="43.61831" lon="3.88664">
        <ele>68.118568</ele>
        <time>2025-04-20T15:27:28.406Z</time>
      </trkpt>
      <trkpt lat="43.61773" lon="3.88604">
        <ele>69.111058</ele>
        <time>2025-04-20T15:27:48.953Z</time>
      </trkpt>
      <trkpt lat="43.61764" lon="3.88599">
        <ele>69.344695</ele>
        <time>2025-04-20T15:27:53.417Z</time>
      </trkpt>
      <trkpt lat="43.61756" lon="3.88589">
        <ele>69.596973</ele>
        <time>2025-04-20T15:27:57.426Z</time>
      </trkpt>
      <trkpt lat="43.61755" lon="3.88576">
        <ele>69.819476</ele>
        <time>2025-04-20T15:28:01.429Z</time>
      </trkpt>
      <trkpt lat="43.61747" lon="3.88569">
        <ele>70.043395</ele>
        <time>2025-04-20T15:28:05.430Z</time>
      </trkpt>
      <trkpt lat="43.61739" lon="3.88563">
        <ele>70.266607</ele>
        <time>2025-04-20T15:28:08.430Z</time>
      </trkpt>
      <trkpt lat="43.61731" lon="3.88556">
        <ele>70.485431</ele>
        <time>2025-04-20T15:28:11.421Z</time>
      </trkpt>
      <trkpt lat="43.61722" lon="3.88546">
        <ele>70.751958</ele>
        <time>2025-04-20T15:28:15.405Z</time>
      </trkpt>
      <trkpt lat="43.61666" lon="3.88479">
        <ele>71.106318</ele>
        <time>2025-04-20T15:28:38.932Z</time>
      </trkpt>
      <trkpt lat="43.61657" lon="3.88487">
        <ele>70.633658</ele>
        <time>2025-04-20T15:28:41.437Z</time>
      </trkpt>
      <trkpt lat="43.61647" lon="3.88478">
        <ele>70.126708</ele>
        <time>2025-04-20T15:28:44.419Z</time>
      </trkpt>
      <trkpt lat="43.61641" lon="3.88466">
        <ele>69.65781</ele>
        <time>2025-04-20T15:28:46.415Z</time>
      </trkpt>
      <trkpt lat="43.61633" lon="3.88454">
        <ele>69.150646</ele>
        <time>2025-04-20T15:28:49.459Z</time>
      </trkpt>
      <trkpt lat="43.61625" lon="3.88446">
        <ele>68.715585</ele>
        <time>2025-04-20T15:28:52.425Z</time>
      </trkpt>
      <trkpt lat="43.61617" lon="3.88438">
        <ele>68.274285</ele>
        <time>2025-04-20T15:28:56.391Z</time>
      </trkpt>
      <trkpt lat="43.61609" lon="3.88429">
        <ele>67.818169</ele>
        <time>2025-04-20T15:29:02.425Z</time>
      </trkpt>
      <trkpt lat="43.61602" lon="3.88421">
        <ele>67.422115</ele>
        <time>2025-04-20T15:29:06.440Z</time>
      </trkpt>
      <trkpt lat="43.61592" lon="3.88412">
        <ele>66.919943</ele>
        <time>2025-04-20T15:29:10.417Z</time>
      </trkpt>
      <trkpt lat="43.61585" lon="3.88402">
        <ele>66.467293</ele>
        <time>2025-04-20T15:29:26.129Z</time>
      </trkpt>
      <trkpt lat="43.61562" lon="3.88373">
        <ele>65.127804</ele>
        <time>2025-04-20T15:29:27.140Z</time>
      </trkpt>
      <trkpt lat="43.61553" lon="3.88364">
        <ele>64.643447</ele>
        <time>2025-04-20T15:29:31.426Z</time>
      </trkpt>
      <trkpt lat="43.61545" lon="3.88355">
        <ele>64.192257</ele>
        <time>2025-04-20T15:29:35.427Z</time>
      </trkpt>
      <trkpt lat="43.61536" lon="3.88346">
        <ele>64.311098</ele>
        <time>2025-04-20T15:29:40.444Z</time>
      </trkpt>
      <trkpt lat="43.61527" lon="3.88336">
        <ele>64.44912</ele>
        <time>2025-04-20T15:29:44.423Z</time>
      </trkpt>
      <trkpt lat="43.61517" lon="3.88331">
        <ele>64.578814</ele>
        <time>2025-04-20T15:29:47.413Z</time>
      </trkpt>
      <trkpt lat="43.6151" lon="3.8832">
        <ele>64.705135</ele>
        <time>2025-04-20T15:29:51.390Z</time>
      </trkpt>
      <trkpt lat="43.61509" lon="3.88304">
        <ele>64.846369</ele>
        <time>2025-04-20T15:29:55.414Z</time>
      </trkpt>
      <trkpt lat="43.61506" lon="3.88292">
        <ele>64.960426</ele>
        <time>2025-04-20T15:29:58.444Z</time>
      </trkpt>
      <trkpt lat="43.61507" lon="3.88277">
        <ele>65.09172</ele>
        <time>2025-04-20T15:30:01.441Z</time>
      </trkpt>
      <trkpt lat="43.61509" lon="3.8826">
        <ele>65.239047</ele>
        <time>2025-04-20T15:30:04.414Z</time>
      </trkpt>
      <trkpt lat="43.61631" lon="3.88344">
        <ele>67.434976</ele>
        <time>2025-04-20T15:30:15.455Z</time>
      </trkpt>
      <trkpt lat="43.61512" lon="3.88193">
        <ele>70.648326</ele>
        <time>2025-04-20T15:30:16.918Z</time>
      </trkpt>
      <trkpt lat="43.61507" lon="3.88181">
        <ele>70.604138</ele>
        <time>2025-04-20T15:30:19.440Z</time>
      </trkpt>
      <trkpt lat="43.61505" lon="3.88168">
        <ele>70.560301</ele>
        <time>2025-04-20T15:30:22.433Z</time>
      </trkpt>
      <trkpt lat="43.61502" lon="3.88155">
        <ele>70.517959</ele>
        <time>2025-04-20T15:30:26.459Z</time>
      </trkpt>
      <trkpt lat="43.61499" lon="3.88142">
        <ele>70.473872</ele>
        <time>2025-04-20T15:30:30.420Z</time>
      </trkpt>
      <trkpt lat="43.61494" lon="3.88131">
        <ele>70.429433</ele>
        <time>2025-04-20T15:30:41.432Z</time>
      </trkpt>
      <trkpt lat="43.61366" lon="3.88112">
        <ele>71.616164</ele>
        <time>2025-04-20T15:31:58.440Z</time>
      </trkpt>
      <trkpt lat="43.61349" lon="3.88107">
        <ele>72.823731</ele>
        <time>2025-04-20T15:32:03.437Z</time>
      </trkpt>
      <trkpt lat="43.61338" lon="3.8811">
        <ele>73.5952</ele>
        <time>2025-04-20T15:32:09.426Z</time>
      </trkpt>
      <trkpt lat="43.61329" lon="3.8811">
        <ele>74.265561</ele>
        <time>2025-04-20T15:32:13.436Z</time>
      </trkpt>
      <trkpt lat="43.61319" lon="3.8811">
        <ele>74.935921</ele>
        <time>2025-04-20T15:32:17.438Z</time>
      </trkpt>
      <trkpt lat="43.61309" lon="3.88111">
        <ele>75.684338</ele>
        <time>2025-04-20T15:32:23.426Z</time>
      </trkpt>
      <trkpt lat="43.61294" lon="3.88104">
        <ele>76.760061</ele>
        <time>2025-04-20T15:32:36.909Z</time>
      </trkpt>
      <trkpt lat="43.61285" lon="3.88101">
        <ele>77.424151</ele>
        <time>2025-04-20T15:32:38.433Z</time>
      </trkpt>
      <trkpt lat="43.61272" lon="3.88099">
        <ele>78.39316</ele>
        <time>2025-04-20T15:32:40.425Z</time>
      </trkpt>
      <trkpt lat="43.61262" lon="3.881">
        <ele>79.08486</ele>
        <time>2025-04-20T15:32:43.429Z</time>
      </trkpt>
      <trkpt lat="43.61251" lon="3.88098">
        <ele>79.85645</ele>
        <time>2025-04-20T15:32:47.416Z</time>
      </trkpt>
      <trkpt lat="43.61241" lon="3.88098">
        <ele>80.583711</ele>
        <time>2025-04-20T15:32:51.416Z</time>
      </trkpt>
      <trkpt lat="43.61231" lon="3.88096">
        <ele>81.26035</ele>
        <time>2025-04-20T15:32:55.418Z</time>
      </trkpt>
      <trkpt lat="43.61222" lon="3.88094">
        <ele>81.92009</ele>
        <time>2025-04-20T15:32:59.425Z</time>
      </trkpt>
      <trkpt lat="43.61213" lon="3.88092">
        <ele>82.569521</ele>
        <time>2025-04-20T15:33:03.406Z</time>
      </trkpt>
      <trkpt lat="43.61202" lon="3.8809">
        <ele>81.691722</ele>
        <time>2025-04-20T15:33:08.434Z</time>
      </trkpt>
      <trkpt lat="43.61192" lon="3.88086">
        <ele>80.658492</ele>
        <time>2025-04-20T15:33:15.421Z</time>
      </trkpt>
      <trkpt lat="43.61185" lon="3.88092">
        <ele>79.745978</ele>
        <time>2025-04-20T15:33:20.440Z</time>
      </trkpt>
      <trkpt lat="43.60934" lon="3.88152">
        <ele>64.630102</ele>
        <time>2025-04-20T15:35:33.496Z</time>
      </trkpt>
      <trkpt lat="43.60931" lon="3.88123">
        <ele>64.630102</ele>
        <time>2025-04-20T15:35:34.891Z</time>
      </trkpt>
      <trkpt lat="43.60944" lon="3.88123">
        <ele>64.630102</ele>
        <time>2025-04-20T15:35:53.423Z</time>
      </trkpt>
    </trkseg>
  </trk>
</gpx>